Data for 03/31/2011

Time Sea-Level Adjusted Pressure Absolute Pressure Temperature Relative Humidity Dew Point Precipitation   
(mb) (inHg) (mb) (inHg) (C) (F) (%) (C) (F) (mm) (in)
00:01 1017 30.03 846 24.98 6.4 43.5 65 0.3 32.6 6.787 0.267
00:02 1017 30.03 846 24.98 6.3 43.3 66 0.4 32.7 6.696 0.264
00:03 1017 30.03 846 24.98 6.1 43 67 0.4 32.8 6.566 0.259
00:04 1017 30.03 846 24.98 6 42.7 67 0.3 32.6 6.38 0.251
00:05 1017 30.03 846 24.98 5.8 42.5 68 0.4 32.7 6.261 0.246
00:06 1017 30.03 846 24.98 5.7 42.3 69 0.4 32.7 6.08 0.239
00:07 1017 30.03 846 24.98 5.5 41.9 69 0.4 32.7 5.916 0.233
00:08 1017 30.03 846 24.98 5.3 41.6 71 0.4 32.7 5.729 0.226
00:09 1017 30.03 846 24.98 5.1 41.2 72 0.4 32.7 5.537 0.218
00:10 1017 30.03 846 24.98 4.9 40.8 73 0.4 32.8 5.328 0.21
00:11 1017 30.03 846 24.98 4.7 40.5 73 0.4 32.7 5.186 0.204
00:12 1017 30.03 846 24.98 4.7 40.4 73 0.3 32.6 5.09 0.2
00:13 1017 30.03 846 24.98 4.7 40.4 73 0.3 32.6 5.079 0.2
00:14 1017 30.03 846 24.98 4.8 40.6 72 0.2 32.4 5.187 0.204
00:15 1017 30.03 846 24.98 5.1 41.2 69 -0.1 31.9 5.42 0.213
00:16 1017 30.03 846 24.98 5.3 41.5 69 0.1 32.2 5.669 0.223
00:17 1017 30.03 846 24.98 5.3 41.6 69 0 32.1 5.737 0.226
00:18 1017 30.03 846 24.98 5.4 41.7 68 0.1 32.1 5.788 0.228
00:19 1017 30.03 846 24.98 5.4 41.8 68 0.1 32.2 5.833 0.23
00:20 1017 30.03 846 24.98 5.5 41.9 68 0 32.1 5.907 0.233
00:21 1017 30.03 846 24.98 5.6 42.1 68 0.2 32.4 5.965 0.235
00:22 1017 30.03 846 24.98 5.6 42.1 69 0.3 32.6 5.987 0.236
00:23 1017 30.03 846 24.98 5.5 41.9 69 0.3 32.6 5.925 0.233
00:24 1017 30.03 846 24.98 5.4 41.8 69 0.2 32.4 5.834 0.23
00:25 1017 30.03 846 24.98 5.4 41.7 69 0.2 32.4 5.806 0.229
00:26 1017 30.03 846 24.98 5.5 41.8 69 0.3 32.5 5.846 0.23
00:27 1017 30.03 846 24.98 5.4 41.8 69 0.2 32.4 5.858 0.231
00:28 1017 30.03 846 24.98 5.5 41.9 68 0.2 32.3 5.864 0.231
00:29 1017 30.03 846 24.98 5.6 42.1 67 0 32.1 5.954 0.234
00:30 1017 30.03 846 24.98 5.8 42.4 67 0.2 32.3 6.119 0.241
00:31 1017 30.03 846 24.98 5.8 42.5 67 0.2 32.4 6.199 0.244
00:32 1017 30.03 846 24.98 5.8 42.5 68 0.3 32.6 6.193 0.244
00:33 1017 30.03 846 24.98 5.7 42.3 68 0.4 32.7 6.12 0.241
00:34 1017 30.03 846 24.98 5.6 42 69 0.4 32.8 6.041 0.238
00:35 1017 30.03 846 24.98 5.6 42 69 0.3 32.5 5.968 0.235
00:36 1017 30.03 846 24.98 5.6 42.1 68 0.2 32.4 5.991 0.236
00:37 1017 30.03 846 24.98 5.7 42.2 68 0.3 32.5 6.042 0.238
00:38 1017 30.03 846 24.98 5.7 42.3 68 0.2 32.4 6.076 0.239
00:39 1017 30.03 846 24.98 5.8 42.4 66 -0.1 31.8 6.093 0.24
00:40 1017 30.03 846 24.98 6 42.8 65 0.1 32.1 6.319 0.249
00:41 1017 30.03 846 24.98 6.2 43.1 64 -0.2 31.6 6.535 0.257
00:42 1017 30.03 846 24.98 6.4 43.6 63 -0.2 31.7 6.773 0.267
00:43 1017 30.03 846 24.98 6.6 43.9 62 -0.1 31.9 7 0.276
00:44 1017 30.03 846 24.98 6.7 44.1 63 0.2 32.3 7.13 0.281
00:45 1017 30.03 846 24.98 6.7 44 63 0.2 32.3 7.09 0.279
00:46 1017 30.03 846 24.98 6.6 43.9 64 0.3 32.5 7 0.276
00:47 1017 30.03 846 24.98 6.6 43.8 64 0.3 32.5 6.977 0.275
00:48 1017 30.03 846 24.98 6.5 43.8 64 0.3 32.5 6.937 0.273
00:49 1017 30.03 846 24.98 6.5 43.7 64 0.2 32.3 6.886 0.271
00:50 1017 30.03 846 24.98 6.5 43.7 65 0.3 32.6 6.898 0.272
00:51 1017 30.03 846 24.98 6.5 43.7 63 0 32 6.892 0.271
00:52 1017 30.03 846 24.98 6.6 43.8 64 0.2 32.4 6.943 0.273
00:53 1017 30.03 846 24.98 6.6 43.9 64 0.4 32.7 7 0.276
00:54 1017 30.03 846 24.98 6.5 43.6 65 0.3 32.5 6.915 0.272
00:55 1017 30.03 846 24.98 6.4 43.6 65 0.3 32.5 6.83 0.269
00:56 1017 30.03 846 24.98 6.4 43.5 65 0.4 32.7 6.791 0.267
00:57 1017 30.03 846 24.98 6.3 43.4 65 0.3 32.6 6.774 0.267
00:58 1017 30.03 846 24.98 6.3 43.4 66 0.4 32.7 6.706 0.264
00:59 1017 30.03 846 24.98 6.2 43.2 66 0.4 32.7 6.638 0.261
01:00 1017 30.03 846 24.98 6.1 43 67 0.4 32.7 6.598 0.26
01:01 1017 30.03 846 24.98 6.1 43 66 0.3 32.6 6.553 0.258
01:02 1017 30.03 846 24.98 6.1 43 66 0.3 32.6 6.542 0.258
01:03 1017 30.03 846 24.98 6.1 43 66 0.3 32.5 6.536 0.257
01:04 1017 30.03 846 24.98 6.1 42.9 67 0.3 32.6 6.519 0.257
01:05 1017 30.03 846 24.98 6.1 42.9 67 0.4 32.7 6.446 0.254
01:06 1017 30.03 846 24.98 6.1 42.9 66 0.2 32.3 6.457 0.254
01:07 1017 30.03 846 24.98 6.1 43 65 -0 32 6.508 0.256
01:08 1017 30.03 846 24.98 6.3 43.4 64 0.1 32.2 6.672 0.263
01:09 1017 30.03 846 24.98 6.4 43.5 65 0.2 32.4 6.746 0.266
01:10 1017 30.03 846 24.98 6.3 43.4 64 0.1 32.2 6.757 0.266
01:11 1017 30.03 846 24.98 6.4 43.5 63 -0 32 6.78 0.267
01:12 1017 30.03 846 24.98 6.5 43.7 64 0.1 32.3 6.882 0.271
01:13 1017 30.03 846 24.98 6.5 43.7 64 0.2 32.3 6.893 0.271
01:14 1017 30.03 846 24.98 6.5 43.7 63 -0 32 6.876 0.271
01:15 1017 30.03 846 24.98 6.6 43.9 63 0 32.1 6.955 0.274
01:16 1017 30.03 846 24.98 6.7 44 62 -0 31.9 7.02 0.276
01:17 1017 30.03 846 24.98 6.7 44 63 0.2 32.4 7.09 0.279
01:18 1017 30.03 846 24.98 6.6 43.9 63 0.2 32.3 6.995 0.275
01:19 1017 30.03 846 24.98 6.5 43.7 64 0.1 32.2 6.916 0.272
01:20 1017 30.03 846 24.98 6.5 43.7 65 0.5 32.8 6.865 0.27
01:21 1017 30.03 846 24.98 6.3 43.4 65 0.3 32.5 6.757 0.266
01:22 1017 30.03 846 24.98 6.3 43.3 65 0.2 32.3 6.678 0.263
01:23 1017 30.03 846 24.98 6.2 43.2 66 0.4 32.8 6.655 0.262
01:24 1017 30.03 846 24.98 6.1 43 68 0.6 33.1 6.525 0.257
01:25 1017 30.03 846 24.98 5.9 42.6 67 0.3 32.5 6.344 0.25
01:26 1017 30.03 846 24.98 5.9 42.5 68 0.4 32.8 6.282 0.247
01:27 1017 30.03 846 24.98 5.8 42.5 67 0.2 32.4 6.191 0.244
01:28 1017 30.03 846 24.98 5.8 42.5 68 0.3 32.6 6.236 0.246
01:29 1017 30.03 846 24.98 5.7 42.2 68 0.2 32.4 6.123 0.241
01:30 1017 30.03 846 24.98 5.6 42.2 68 0.2 32.3 6.061 0.239
01:31 1017 30.03 846 24.98 5.6 42.1 68 0.2 32.4 6.027 0.237
01:32 1017 30.03 846 24.98 5.5 42 69 0.2 32.4 5.931 0.234
01:33 1017 30.03 846 24.98 5.5 41.9 68 0.1 32.1 5.886 0.232
01:34 1017 30.03 846 24.98 5.5 41.8 69 0.2 32.4 5.835 0.23
01:35 1017 30.03 846 24.98 5.3 41.6 69 0.1 32.2 5.727 0.225
01:36 1017 30.03 846 24.98 5.3 41.5 70 0.3 32.6 5.648 0.222
01:37 1017 30.03 846 24.98 5.1 41.2 71 0.3 32.6 5.506 0.217
01:38 1017 30.03 846 24.98 5 41 71 0.2 32.4 5.371 0.211
01:39 1017 30.03 846 24.98 4.9 40.9 71 0.2 32.4 5.32 0.209
01:40 1017 30.03 846 24.98 4.9 40.8 72 0.2 32.4 5.303 0.209
01:41 1017 30.03 846 24.98 4.9 40.7 72 0.3 32.5 5.274 0.208
01:42 1017 30.03 846 24.98 4.7 40.5 73 0.3 32.5 5.19 0.204
01:43 1017 30.03 846 24.98 4.7 40.4 73 0.3 32.5 5.11 0.201
01:44 1017 30.03 846 24.98 4.7 40.4 73 0.3 32.5 5.105 0.201
01:45 1017 30.03 846 24.98 4.7 40.4 72 0.1 32.2 5.144 0.203
01:46 1017 30.03 846 24.98 4.9 40.9 70 -0.1 31.8 5.303 0.209
01:47 1017 30.03 846 24.98 5.2 41.3 69 0.1 32.1 5.512 0.217
01:48 1017 30.03 846 24.98 5.3 41.5 69 0.1 32.1 5.614 0.221
01:49 1017 30.03 846 24.98 5.3 41.6 68 0 32 5.688 0.224
01:50 1017 30.03 846 24.98 5.4 41.8 68 0.1 32.1 5.818 0.229
01:51 1017 30.03 846 24.98 5.4 41.7 69 0.2 32.4 5.789 0.228
01:52 1017 30.03 846 24.98 5.3 41.5 69 0.1 32.2 5.75 0.226
01:53 1017 30.03 846 24.98 5.3 41.6 69 0 32.1 5.71 0.225
01:54 1017 30.03 846 24.98 5.4 41.7 68 0 32 5.727 0.225
01:55 1017 30.03 846 24.98 5.4 41.7 70 0.3 32.5 5.778 0.227
01:56 1017 30.03 846 24.98 5.3 41.5 68 -0.1 31.8 5.665 0.223
01:57 1017 30.03 846 24.98 5.5 42 66 -0.4 31.4 5.886 0.232
01:58 1017 30.03 846 24.98 5.8 42.4 67 0 32.1 6.112 0.241
01:59 1017 30.03 846 24.98 5.7 42.3 68 0.3 32.5 6.061 0.239
02:00 1017 30.03 846 24.98 5.4 41.8 69 0.2 32.4 5.852 0.23
02:01 1017 30.03 846 24.98 5.2 41.4 71 0.4 32.6 5.591 0.22
02:02 1017 30.03 846 24.98 5 41.1 71 0.2 32.3 5.473 0.215
02:03 1017 30.03 846 24.98 5 40.9 71 0.2 32.4 5.354 0.211
02:04 1017 30.03 846 24.98 4.9 40.8 72 0.3 32.5 5.274 0.208
02:05 1017 30.03 846 24.98 4.7 40.5 72 0.1 32.1 5.167 0.203
02:06 1017 30.03 846 24.98 4.9 40.8 71 0 32.1 5.235 0.206
02:07 1017 30.03 846 24.98 5 41 70 -0.1 31.8 5.371 0.211
02:08 1017 30.03 846 24.98 5.2 41.3 68 -0.2 31.6 5.58 0.22
02:09 1017 30.03 846 24.98 5.3 41.6 68 -0 31.9 5.71 0.225
02:10 1017 30.03 846 24.98 5.2 41.4 69 0.1 32.1 5.648 0.222
02:11 1017 30.03 846 24.98 5.1 41.1 70 0.1 32.1 5.478 0.216
02:12 1017 30.03 846 24.98 5 40.9 71 0.1 32.1 5.371 0.211
02:13 1017 30.03 846 24.98 4.9 40.7 72 0.2 32.3 5.291 0.208
02:14 1017 30.03 846 24.98 4.8 40.6 72 0.1 32.2 5.201 0.205
02:15 1017 30.03 846 24.98 4.7 40.5 71 -0 32 5.19 0.204
02:16 1017 30.03 846 24.98 4.8 40.6 71 -0 31.9 5.195 0.205
02:17 1017 30.03 846 24.98 4.9 40.8 70 -0.1 31.8 5.252 0.207
02:18 1017 30.03 846 24.98 5.1 41.2 69 -0.1 31.8 5.41 0.213
02:19 1017 30.03 846 24.98 5.3 41.6 68 -0.2 31.7 5.637 0.222
02:20 1017 30.03 846 24.98 5.5 42 68 0.1 32.2 5.852 0.23
02:21 1017 30.03 846 24.98 5.5 41.8 69 0.2 32.3 5.682 0.224
02:22 1017 30.03 846 24.98 5.3 41.5 69 0.1 32.1 5.608 0.221
02:23 1017 30.03 846 24.98 5.3 41.5 69 0 32 5.608 0.221
02:24 1017 30.03 846 24.98 5.3 41.6 68 -0.1 31.9 5.699 0.224
02:25 1017 30.03 846 24.98 5.4 41.6 68 -0 31.9 5.722 0.225
02:26 1017 30.03 846 24.98 5.4 41.6 68 0 32.1 5.727 0.225
02:27 1017 30.03 846 24.98 5.2 41.4 69 0.1 32.1 5.659 0.223
02:28 1016 30 846 24.98 5 41.1 70 0.1 32.1 5.49 0.216
02:29 1016 30 846 24.98 4.9 40.9 71 0 32 5.354 0.211
02:30 1016 30 846 24.98 5 40.9 70 -0.1 31.8 5.371 0.211
02:31 1016 30 846 24.98 5 40.9 70 -0 32 5.359 0.211
02:32 1016 30 846 24.98 4.9 40.8 70 -0 32 5.314 0.209
02:33 1016 30 846 24.98 4.9 40.8 70 -0.1 31.9 5.269 0.207
02:34 1016 30 846 24.98 4.9 40.8 70 -0.2 31.7 5.257 0.207
02:35 1016 30 846 24.98 5 41 70 -0.1 31.9 5.382 0.212
02:36 1016 30 846 24.98 4.8 40.7 71 0.1 32.1 5.252 0.207
02:37 1016 30 846 24.98 4.6 40.2 73 0.1 32.2 5.014 0.197
02:38 1016 30 846 24.98 4.3 39.8 74 0.2 32.3 4.714 0.186
02:39 1016 30 846 24.98 4.1 39.4 75 0.1 32.2 4.499 0.177
02:40 1016 30 846 24.98 3.9 39.1 76 0.2 32.3 4.358 0.172
02:41 1016 30 846 24.98 3.9 39 76 0.1 32.2 4.284 0.169
02:42 1016 30 846 24.98 4 39.1 75 0 32 4.363 0.172
02:43 1016 30 845 24.95 4.2 39.6 74 -0.1 31.9 4.567 0.18
02:44 1016 30 845 24.95 4.4 39.9 73 0 32 4.748 0.187
02:45 1016 30 845 24.95 4.5 40 72 -0.1 31.8 4.844 0.191
02:46 1016 30 845 24.95 4.6 40.3 71 -0.1 31.8 4.935 0.194
02:47 1016 30 845 24.95 4.6 40.4 72 0 32.1 4.969 0.196
02:48 1016 30 845 24.95 4.5 40.2 73 0.1 32.1 4.839 0.191
02:49 1016 30 845 24.95 4.5 40.2 72 -0.1 31.8 4.805 0.189
02:50 1016 30 845 24.95 4.7 40.4 71 -0.1 31.8 4.935 0.194
02:51 1016 30 845 24.95 4.7 40.5 71 -0.2 31.7 4.991 0.196
02:52 1016 30 845 24.95 4.8 40.7 70 -0.2 31.7 5.127 0.202
02:53 1016 30 845 24.95 4.9 40.8 71 0 32 5.156 0.203
02:54 1016 30 845 24.95 4.7 40.5 72 0.1 32.2 4.997 0.197
02:55 1016 30 845 24.95 4.5 40.1 73 0.1 32.2 4.861 0.191
02:56 1016 30 845 24.95 4.4 39.8 74 0.2 32.3 4.737 0.186
02:57 1016 30 845 24.95 4.1 39.5 75 0.2 32.4 4.544 0.179
02:58 1016 30 845 24.95 4 39.2 76 0.2 32.4 4.363 0.172
02:59 1016 30 845 24.95 3.9 39.1 76 0.1 32.2 4.341 0.171
03:00 1016 30 845 24.95 4 39.3 75 -0 31.9 4.397 0.173
03:01 1016 30 845 24.95 4.1 39.4 75 0 32.1 4.426 0.174
03:02 1016 30 845 24.95 4.1 39.4 75 0.1 32.1 4.448 0.175
03:03 1016 30 845 24.95 4.1 39.3 75 0.1 32.1 4.403 0.173
03:04 1016 30 845 24.95 4 39.3 76 0.1 32.2 4.358 0.172
03:05 1016 30 845 24.95 4 39.2 76 0.1 32.1 4.318 0.17
03:06 1016 30 845 24.95 4 39.2 75 0.1 32.1 4.352 0.171
03:07 1016 30 845 24.95 4 39.2 76 0.2 32.3 4.312 0.17
03:08 1016 30 845 24.95 3.8 38.9 77 0.2 32.4 4.217 0.166
03:09 1016 30 845 24.95 3.7 38.7 78 0.3 32.5 4.059 0.16
03:10 1016 30 845 24.95 3.6 38.5 79 0.3 32.5 4.008 0.158
03:11 1016 30 845 24.95 3.5 38.3 79 0.3 32.5 3.94 0.155
03:12 1016 30 845 24.95 3.5 38.2 80 0.3 32.5 3.878 0.153
03:13 1016 30 845 24.95 3.5 38.3 80 0.3 32.5 3.9 0.154
03:14 1016 30 845 24.95 3.6 38.4 79 0.2 32.4 3.912 0.154
03:15 1016 30 845 24.95 3.6 38.5 78 0.2 32.3 3.985 0.157
03:16 1016 30 845 24.95 3.7 38.7 77 0 32.1 4.059 0.16
03:17 1016 30 845 24.95 3.9 39.1 75 -0.1 31.8 4.364 0.172
03:18 1016 30 845 24.95 4.3 39.7 74 -0 32 4.59 0.181
03:19 1016 30 845 24.95 4.4 39.9 73 0 32 4.726 0.186
03:20 1016 30 845 24.95 4.5 40.1 73 0.1 32.1 4.829 0.19
03:21 1016 30 845 24.95 4.4 40 74 0.2 32.4 4.756 0.187
03:22 1016 30 845 24.95 4.3 39.7 74 0.1 32.1 4.682 0.184
03:23 1016 30 845 24.95 4.3 39.8 74 0.1 32.2 4.723 0.186
03:24 1016 30 845 24.95 4.3 39.7 74 0 32.1 4.638 0.183
03:25 1016 30 845 24.95 4.4 39.9 74 0.1 32.2 4.74 0.187
03:26 1016 30 845 24.95 4.4 39.9 73 0 32 4.747 0.187
03:27 1016 30 845 24.95 4.6 40.2 71 -0.2 31.7 4.882 0.192
03:28 1016 30 845 24.95 4.8 40.6 71 -0.1 31.9 5.069 0.2
03:29 1016 30 845 24.95 4.9 40.9 70 -0 32 5.183 0.204
03:30 1016 30 845 24.95 4.9 40.9 70 0 32 5.234 0.206
03:31 1016 30 845 24.95 4.9 40.9 70 -0.1 31.8 5.217 0.205
03:32 1016 30 845 24.95 5.1 41.2 69 -0.1 31.9 5.353 0.211
03:33 1016 30 845 24.95 5.2 41.3 69 -0 31.9 5.461 0.215
03:34 1016 30 845 24.95 5.2 41.4 69 0.1 32.1 5.455 0.215
03:35 1016 30 845 24.95 5.1 41.2 69 -0 32 5.439 0.214
03:36 1016 30 845 24.95 5.1 41.1 70 0 32 5.433 0.214
03:37 1016 30 845 24.95 5.1 41.1 69 -0 31.9 5.365 0.211
03:38 1016 30 845 24.95 5.1 41.1 70 -0 32 5.417 0.213
03:39 1016 30 845 24.95 5.1 41.2 69 -0.1 31.8 5.451 0.215
03:40 1015 29.97 845 24.95 5.2 41.3 68 -0.2 31.7 5.592 0.22
03:41 1015 29.97 845 24.95 5.3 41.5 69 0 32 5.683 0.224
03:42 1015 29.97 845 24.95 5.2 41.4 68 -0.1 31.8 5.626 0.221
03:43 1015 29.97 845 24.95 5.3 41.5 68 -0.2 31.7 5.649 0.222
03:44 1015 29.97 845 24.95 5.3 41.6 68 -0.1 31.8 5.723 0.225
03:45 1015 29.97 845 24.95 5.4 41.8 67 -0.1 31.8 5.74 0.226
03:46 1015 29.97 845 24.95 5.5 41.9 67 -0.1 31.9 5.825 0.229
03:47 1015 29.97 845 24.95 5.5 41.9 68 0 32 5.802 0.228
03:48 1016 30 845 24.95 5.5 41.8 68 0 32 5.796 0.228
03:49 1016 30 845 24.95 5.4 41.7 68 -0.1 31.9 5.751 0.226
03:50 1016 30 845 24.95 5.4 41.7 68 -0.1 31.9 5.751 0.226
03:51 1016 30 845 24.95 5.4 41.7 67 -0.1 31.8 5.774 0.227
03:52 1016 30 845 24.95 5.4 41.8 68 -0.1 31.9 5.809 0.229
03:53 1016 30 845 24.95 5.4 41.8 68 -0 31.9 5.81 0.229
03:54 1016 30 845 24.95 5.4 41.7 68 -0 32 5.77 0.227
03:55 1016 30 845 24.95 5.3 41.6 68 -0.1 31.9 5.691 0.224
03:56 1016 30 845 24.95 5.3 41.6 68 -0.1 31.9 5.691 0.224
03:57 1016 30 845 24.95 5.2 41.4 68 -0.2 31.7 5.657 0.223
03:58 1015 29.97 845 24.95 5.3 41.6 68 -0.1 31.7 5.702 0.224
03:59 1015 29.97 845 24.95 5.4 41.6 67 -0.2 31.6 5.77 0.227
04:00 1015 29.97 845 24.95 5.5 41.9 67 -0.1 31.7 5.855 0.231
04:01 1016 30 845 24.95 5.6 42 67 -0.1 31.9 5.939 0.234
04:02 1016 30 845 24.95 5.6 42.1 67 0 32 5.996 0.236
04:03 1016 30 845 24.95 5.6 42.1 67 0 32.1 6.03 0.237
04:04 1016 30 845 24.95 5.7 42.2 67 0 32.1 6.069 0.239
04:05 1016 30 845 24.95 5.7 42.3 67 0.1 32.1 6.115 0.241
04:06 1015 29.97 845 24.95 5.8 42.4 67 0.1 32.1 6.177 0.243
04:07 1015 29.97 845 24.95 5.8 42.5 67 0.2 32.3 6.166 0.243
04:08 1015 29.97 845 24.95 5.7 42.3 67 0.2 32.3 6.154 0.242
04:09 1015 29.97 845 24.95 5.7 42.3 67 -0 32 6.126 0.241
04:10 1015 29.97 845 24.95 5.8 42.4 67 0.1 32.2 6.16 0.243
04:11 1015 29.97 845 24.95 5.8 42.5 66 0.1 32.1 6.211 0.245
04:12 1015 29.97 845 24.95 5.9 42.5 66 0.1 32.2 6.245 0.246
04:13 1015 29.97 845 24.95 5.9 42.6 66 0.1 32.1 6.296 0.248
04:14 1015 29.97 845 24.95 5.9 42.7 66 0.1 32.1 6.38 0.251
04:15 1015 29.97 845 24.95 6 42.7 66 0.1 32.2 6.347 0.25
04:16 1015 29.97 845 24.95 5.9 42.7 66 0.1 32.2 6.352 0.25
04:17 1015 29.97 845 24.95 5.9 42.6 66 0.1 32.1 6.279 0.247
04:18 1015 29.97 844 24.92 5.8 42.5 67 0.1 32.2 6.228 0.245
04:19 1015 29.97 844 24.92 5.8 42.4 67 0.1 32.2 6.16 0.243
04:20 1015 29.97 844 24.92 5.7 42.2 67 0.1 32.1 6.046 0.238
04:21 1015 29.97 844 24.92 5.6 42.1 67 -0.1 31.9 6.024 0.237
04:22 1015 29.97 844 24.92 5.7 42.2 67 -0 32 6.029 0.237
04:23 1015 29.97 844 24.92 5.7 42.2 67 0 32.1 6.069 0.239
04:24 1015 29.97 844 24.92 5.6 42.1 67 0 32.1 6.024 0.237
04:25 1015 29.97 844 24.92 5.6 42.1 67 0 32.1 5.984 0.236
04:26 1015 29.97 844 24.92 5.5 41.9 68 0 32.1 5.911 0.233
04:27 1015 29.97 844 24.92 5.4 41.8 68 0 32.1 5.854 0.23
04:28 1015 29.97 844 24.92 5.4 41.7 69 0.1 32.1 5.78 0.228
04:29 1015 29.97 844 24.92 5.3 41.5 69 0 32.1 5.712 0.225
04:30 1015 29.97 844 24.92 5.1 41.3 69 -0 31.9 5.588 0.22
04:31 1015 29.97 844 24.92 5.1 41.2 69 -0.2 31.7 5.543 0.218
04:32 1015 29.97 844 24.92 5.2 41.4 68 -0.2 31.7 5.571 0.219
04:33 1015 29.97 844 24.92 5.4 41.6 67 -0.2 31.6 5.729 0.226
04:34 1015 29.97 844 24.92 5.5 41.9 67 -0.1 31.8 5.831 0.23
04:35 1015 29.97 844 24.92 5.5 41.9 67 -0.1 31.8 5.905 0.232
04:36 1015 29.97 845 24.95 5.5 41.9 67 -0.1 31.9 5.922 0.233
04:37 1015 29.97 844 24.92 5.5 41.9 68 0 32 5.944 0.234
04:38 1015 29.97 845 24.95 5.6 42 68 0.1 32.1 5.944 0.234
04:39 1015 29.97 844 24.92 5.6 42.1 67 -0 32 6.018 0.237
04:40 1015 29.97 844 24.92 5.8 42.4 67 0.2 32.3 6.16 0.243
04:41 1015 29.97 845 24.95 5.8 42.5 67 0.2 32.4 6.222 0.245
04:42 1015 29.97 845 24.95 5.9 42.6 66 0.1 32.1 6.278 0.247
04:43 1015 29.97 844 24.92 6 42.9 65 0 32.1 6.397 0.252
04:44 1015 29.97 844 24.92 6.1 43.1 66 0.2 32.3 6.544 0.258
04:45 1015 29.97 844 24.92 6.2 43.2 65 0.1 32.3 6.624 0.261
04:46 1015 29.97 844 24.92 6.3 43.4 65 0.2 32.4 6.743 0.265
04:47 1015 29.97 844 24.92 6.5 43.6 64 0.2 32.3 6.884 0.271
04:48 1015 29.97 844 24.92 6.6 43.8 64 0.3 32.5 6.986 0.275
04:49 1015 29.97 844 24.92 6.6 44 64 0.3 32.5 7.05 0.278
04:50 1015 29.97 844 24.92 6.6 44 64 0.4 32.8 7.03 0.277
04:51 1015 29.97 844 24.92 6.6 43.8 64 0.3 32.6 6.992 0.275
04:52 1015 29.97 844 24.92 6.6 43.8 65 0.4 32.8 6.952 0.274
04:53 1015 29.97 844 24.92 6.5 43.7 65 0.4 32.7 6.912 0.272
04:54 1015 29.97 844 24.92 6.5 43.7 65 0.3 32.6 6.901 0.272
04:55 1015 29.97 844 24.92 6.5 43.8 64 0.3 32.6 6.918 0.272
04:56 1015 29.97 844 24.92 6.5 43.7 65 0.4 32.8 6.907 0.272
04:57 1015 29.97 844 24.92 6.5 43.6 66 0.5 32.9 6.833 0.269
04:58 1015 29.97 844 24.92 6.4 43.5 65 0.3 32.6 6.788 0.267
04:59 1015 29.97 844 24.92 6.4 43.6 65 0.3 32.6 6.805 0.268
05:00 1015 29.97 844 24.92 6.4 43.6 65 0.3 32.6 6.856 0.27
05:01 1015 29.97 844 24.92 6.4 43.5 65 0.4 32.7 6.827 0.269
05:02 1015 29.97 844 24.92 6.4 43.6 65 0.3 32.6 6.81 0.268
05:03 1015 29.97 844 24.92 6.4 43.6 65 0.4 32.7 6.848 0.27
05:04 1015 29.97 844 24.92 6.4 43.6 66 0.5 32.9 6.826 0.269
05:05 1015 29.97 844 24.92 6.4 43.5 66 0.5 32.9 6.763 0.266
05:06 1015 29.97 844 24.92 6.3 43.3 66 0.5 33 6.728 0.265
05:07 1015 29.97 844 24.92 6.2 43.1 67 0.5 32.9 6.638 0.261
05:08 1015 29.97 844 24.92 6.1 43 66 0.4 32.6 6.575 0.259
05:09 1015 29.97 844 24.92 6.2 43.2 66 0.3 32.5 6.603 0.26
05:10 1015 29.97 844 24.92 6.3 43.3 66 0.4 32.8 6.693 0.264
05:11 1015 29.97 844 24.92 6.3 43.3 66 0.3 32.6 6.687 0.263
05:12 1015 29.97 844 24.92 6.4 43.4 65 0.2 32.3 6.749 0.266
05:13 1015 29.97 844 24.92 6.5 43.7 65 0.3 32.6 6.868 0.27
05:14 1015 29.97 844 24.92 6.5 43.7 65 0.4 32.7 6.907 0.272
05:15 1015 29.97 844 24.92 6.5 43.8 64 0.3 32.5 6.941 0.273
05:16 1015 29.97 844 24.92 6.6 43.9 64 0.4 32.7 7.05 0.278
05:17 1015 29.97 844 24.92 6.6 43.9 65 0.6 33 7.01 0.276
05:18 1015 29.97 844 24.92 6.5 43.8 65 0.4 32.7 6.918 0.272
05:19 1015 29.97 844 24.92 6.5 43.7 65 0.4 32.8 6.878 0.271
05:20 1015 29.97 844 24.92 6.5 43.6 66 0.5 33 6.821 0.269
05:21 1015 29.97 844 24.92 6.3 43.4 66 0.5 32.9 6.765 0.266
05:22 1015 29.97 844 24.92 6.3 43.3 66 0.5 32.9 6.663 0.262
05:23 1015 29.97 844 24.92 6.2 43.2 67 0.5 32.9 6.617 0.261
05:24 1015 29.97 844 24.92 6.2 43.1 67 0.5 32.8 6.566 0.259
05:25 1015 29.97 844 24.92 6.1 43 67 0.4 32.7 6.555 0.258
05:26 1015 29.97 844 24.92 6.2 43.1 67 0.5 32.9 6.549 0.258
05:27 1015 29.97 844 24.92 6.1 43 67 0.5 32.8 6.498 0.256
05:28 1015 29.97 844 24.92 6.1 42.9 67 0.5 32.9 6.47 0.255
05:29 1015 29.97 844 24.92 6 42.8 68 0.5 32.8 6.407 0.252
05:30 1015 29.97 844 24.92 6 42.8 67 0.4 32.8 6.385 0.251
05:31 1015 29.97 844 24.92 6 42.8 67 0.4 32.7 6.424 0.253
05:32 1015 29.97 844 24.92 6 42.8 68 0.5 32.9 6.418 0.253
05:33 1015 29.97 844 24.92 6 42.7 68 0.5 33 6.345 0.25
05:34 1015 29.97 844 24.92 5.9 42.6 68 0.5 32.9 6.322 0.249
05:35 1015 29.97 844 24.92 5.9 42.7 68 0.4 32.7 6.328 0.249
05:36 1015 29.97 844 24.92 6 42.8 67 0.3 32.6 6.396 0.252
05:37 1015 29.97 844 24.92 6.1 43 66 0.4 32.6 6.509 0.256
05:38 1015 29.97 844 24.92 6.2 43.2 66 0.3 32.6 6.616 0.26
05:39 1015 29.97 844 24.92 6.4 43.4 65 0.3 32.6 6.741 0.265
05:40 1015 29.97 844 24.92 6.4 43.6 66 0.5 32.9 6.803 0.268
05:41 1015 29.97 844 24.92 6.4 43.5 66 0.5 32.8 6.775 0.267
05:42 1015 29.97 844 24.92 6.3 43.4 66 0.4 32.7 6.741 0.265
05:43 1015 29.97 844 24.92 6.4 43.5 65 0.3 32.5 6.758 0.266
05:44 1015 29.97 844 24.92 6.5 43.6 65 0.4 32.8 6.825 0.269
05:45 1015 29.97 844 24.92 6.4 43.6 65 0.4 32.8 6.825 0.269
05:46 1015 29.97 844 24.92 6.4 43.6 66 0.5 32.9 6.831 0.269
05:47 1015 29.97 844 24.92 6.4 43.5 66 0.5 32.8 6.797 0.268
05:48 1015 29.97 844 24.92 6.4 43.4 66 0.5 32.8 6.774 0.267
05:49 1015 29.97 844 24.92 6.3 43.3 66 0.3 32.6 6.712 0.264
05:50 1015 29.97 844 24.92 6.3 43.3 66 0.5 32.9 6.712 0.264
05:51 1015 29.97 844 24.92 6.2 43.1 66 0.4 32.7 6.633 0.261
05:52 1015 29.97 844 24.92 6.1 43.1 67 0.4 32.8 6.565 0.258
05:53 1015 29.97 844 24.92 6.1 43 66 0.3 32.6 6.52 0.257
05:54 1015 29.97 844 24.92 6.1 43.1 66 0.3 32.6 6.531 0.257
05:55 1015 29.97 844 24.92 6.1 43 66 0.2 32.4 6.531 0.257
05:56 1015 29.97 844 24.92 6.1 43 65 0.2 32.3 6.537 0.257
05:57 1015 29.97 844 24.92 6.2 43.1 66 0.2 32.4 6.582 0.259
05:58 1015 29.97 844 24.92 6.2 43.1 65 0.2 32.4 6.582 0.259
05:59 1015 29.97 844 24.92 6.2 43.1 65 0.2 32.4 6.565 0.258
06:00 1015 29.97 844 24.92 6.2 43.1 66 0.3 32.5 6.588 0.259
06:01 1015 29.97 844 24.92 6.2 43.1 66 0.2 32.4 6.559 0.258
06:02 1015 29.97 844 24.92 6.2 43.1 65 -0 32 6.548 0.258
06:03 1015 29.97 844 24.92 6.2 43.2 65 0.2 32.3 6.593 0.26
06:04 1015 29.97 844 24.92 6.2 43.2 66 0.3 32.5 6.627 0.261
06:05 1015 29.97 844 24.92 6.1 43 66 0.3 32.5 6.548 0.258
06:06 1015 29.97 844 24.92 6 42.8 67 0.3 32.6 6.446 0.254
06:07 1015 29.97 844 24.92 5.9 42.6 68 0.4 32.7 6.338 0.25
06:08 1015 29.97 844 24.92 5.7 42.3 69 0.4 32.7 6.174 0.243
06:09 1015 29.97 844 24.92 5.6 42 69 0.4 32.8 6.039 0.238
06:10 1015 29.97 844 24.92 5.4 41.7 70 0.4 32.7 5.886 0.232
06:11 1015 29.97 844 24.92 5.2 41.4 71 0.4 32.8 5.671 0.223
06:12 1015 29.97 844 24.92 5.1 41.3 71 0.3 32.6 5.569 0.219
06:13 1015 29.97 844 24.92 5.1 41.2 71 0.4 32.7 5.546 0.218
06:14 1015 29.97 844 24.92 5 41.1 71 0.3 32.6 5.478 0.216
06:15 1015 29.97 844 24.92 5.1 41.3 71 0.2 32.4 5.552 0.219
06:16 1015 29.97 844 24.92 5.3 41.6 69 0.2 32.3 5.693 0.224
06:17 1015 29.97 844 24.92 5.6 42 68 0.1 32.1 5.914 0.233
06:18 1015 29.97 844 24.92 5.8 42.4 67 0.1 32.2 6.135 0.242
06:19 1015 29.97 844 24.92 5.9 42.6 66 0.1 32.2 6.265 0.247
06:20 1015 29.97 844 24.92 6 42.8 67 0.3 32.5 6.344 0.25
06:21 1015 29.97 844 24.92 6 42.7 66 0.2 32.4 6.361 0.25
06:22 1015 29.97 844 24.92 6.1 43 64 -0.2 31.6 6.486 0.255
06:23 1015 29.97 844 24.92 6.4 43.6 64 0.1 32.2 6.819 0.268
06:24 1015 29.97 844 24.92 6.5 43.6 64 0.1 32.1 6.859 0.27
06:25 1015 29.97 844 24.92 6.5 43.7 64 0.2 32.4 6.927 0.273
06:26 1015 29.97 844 24.92 6.5 43.8 64 0.2 32.4 6.944 0.273
06:27 1015 29.97 844 24.92 6.6 43.9 63 0.1 32.3 6.984 0.275
06:28 1015 29.97 844 24.92 6.6 43.9 64 0.3 32.5 7.06 0.278
06:29 1015 29.97 844 24.92 6.6 43.8 65 0.4 32.7 6.984 0.275
06:30 1015 29.97 844 24.92 6.5 43.8 65 0.5 32.8 6.927 0.273
06:31 1015 29.97 844 24.92 6.5 43.8 64 0.3 32.6 6.938 0.273
06:32 1015 29.97 844 24.92 6.5 43.8 65 0.4 32.7 6.961 0.274
06:33 1015 29.97 844 24.92 6.5 43.6 66 0.5 32.9 6.882 0.271
06:34 1015 29.97 844 24.92 6.4 43.4 67 0.7 33.2 6.78 0.267
06:35 1015 29.97 844 24.92 6.3 43.4 65 0.2 32.4 6.701 0.264
06:36 1015 29.97 844 24.92 6.5 43.7 65 0.4 32.7 6.927 0.273
06:37 1015 29.97 844 24.92 6.6 43.9 64 0.3 32.5 6.995 0.275
06:38 1015 29.97 844 24.92 6.7 44 65 0.5 32.9 7.07 0.278
06:39 1015 29.97 844 24.92 6.6 43.8 65 0.4 32.8 7.01 0.276
06:40 1015 29.97 844 24.92 6.5 43.8 65 0.5 32.9 6.938 0.273
06:41 1015 29.97 844 24.92 6.4 43.6 65 0.4 32.7 6.876 0.271
06:42 1015 29.97 844 24.92 6.5 43.7 65 0.3 32.6 6.887 0.271
06:43 1015 29.97 844 24.92 6.6 43.9 64 0.2 32.4 6.972 0.274
06:44 1015 29.97 844 24.92 6.7 44.1 63 0.2 32.3 7.13 0.281
06:45 1015 29.97 844 24.92 6.8 44.3 63 0.3 32.5 7.23 0.285
06:46 1015 29.97 844 24.92 6.8 44.3 64 0.5 32.9 7.19 0.283
06:47 1015 29.97 844 24.92 6.7 44.1 64 0.5 32.9 7.13 0.281
06:48 1015 29.97 844 24.92 6.7 44 64 0.3 32.6 7.06 0.278
06:49 1015 29.97 844 24.92 6.7 44 64 0.4 32.7 7.04 0.277
06:50 1015 29.97 844 24.92 6.7 44 63 0.2 32.3 7.09 0.279
06:51 1015 29.97 844 24.92 6.7 44.1 64 0.4 32.7 7.13 0.281
06:52 1015 29.97 844 24.92 6.7 44.1 64 0.4 32.6 7.09 0.279
06:53 1015 29.97 844 24.92 6.6 43.9 64 0.4 32.7 7.03 0.277
06:54 1015 29.97 844 24.92 6.7 44 62 -0 31.9 7.13 0.281
06:55 1015 29.97 844 24.92 6.9 44.4 62 0.1 32.2 7.3 0.287
06:56 1015 29.97 844 24.92 6.9 44.5 63 0.4 32.7 7.31 0.288
06:57 1015 29.97 844 24.92 6.8 44.2 64 0.5 32.9 7.22 0.284
06:58 1015 29.97 844 24.92 6.7 44.1 63 0.2 32.4 7.1 0.28
06:59 1015 29.97 844 24.92 6.8 44.2 62 0 32.1 7.13 0.281
07:00 1015 29.97 844 24.92 6.9 44.4 62 0.2 32.4 7.28 0.287
07:01 1015 29.97 844 24.92 7 44.5 61 0.1 32.2 7.35 0.289
07:02 1015 29.97 844 24.92 7 44.6 62 0.2 32.4 7.41 0.292
07:03 1015 29.97 844 24.92 7 44.7 62 0.2 32.3 7.39 0.291
07:04 1015 29.97 844 24.92 7 44.6 61 0.1 32.1 7.4 0.291
07:05 1015 29.97 844 24.92 7 44.7 62 0.4 32.7 7.4 0.291
07:06 1015 29.97 844 24.92 6.9 44.5 61 0 32.1 7.35 0.289
07:07 1015 29.97 844 24.92 7 44.6 62 0.2 32.4 7.39 0.291
07:08 1015 29.97 844 24.92 7 44.6 62 0.1 32.3 7.41 0.292
07:09 1015 29.97 844 24.92 7 44.6 62 0.2 32.4 7.39 0.291
07:10 1015 29.97 844 24.92 6.9 44.5 62 0.1 32.1 7.32 0.288
07:11 1015 29.97 844 24.92 7 44.7 61 -0 31.9 7.41 0.292
07:12 1015 29.97 844 24.92 7 44.7 61 0.1 32.2 7.43 0.293
07:13 1015 29.97 844 24.92 7 44.5 62 0.1 32.2 7.39 0.291
07:14 1015 29.97 844 24.92 6.9 44.4 62 0.1 32.2 7.33 0.289
07:15 1015 29.97 844 24.92 6.8 44.3 62 0.2 32.3 7.26 0.286
07:16 1015 29.97 844 24.92 6.8 44.3 63 0.2 32.4 7.21 0.284
07:17 1015 29.97 844 24.92 6.7 44.1 63 0.2 32.4 7.18 0.283
07:18 1015 29.97 844 24.92 6.7 44.1 63 0.3 32.5 7.13 0.281
07:19 1015 29.97 844 24.92 6.6 43.9 64 0.4 32.7 7.06 0.278
07:20 1015 29.97 844 24.92 6.5 43.7 65 0.4 32.8 6.944 0.273
07:21 1015 29.97 844 24.92 6.4 43.4 65 0.4 32.7 6.814 0.268
07:22 1015 29.97 844 24.92 6.4 43.4 64 0.1 32.3 6.769 0.266
07:23 1015 29.97 844 24.92 6.4 43.6 64 0.1 32.3 6.836 0.269
07:24 1015 29.97 844 24.92 6.5 43.7 64 0.2 32.3 6.91 0.272
07:25 1015 29.97 844 24.92 6.5 43.7 64 0.2 32.3 6.91 0.272
07:26 1015 29.97 844 24.92 6.6 43.8 64 0.3 32.5 6.967 0.274
07:27 1015 29.97 844 24.92 6.6 43.9 64 0.3 32.5 6.995 0.275
07:28 1015 29.97 844 24.92 6.6 43.8 64 0.4 32.7 6.995 0.275
07:29 1015 29.97 844 24.92 6.5 43.8 64 0.2 32.4 6.961 0.274
07:30 1015 29.97 844 24.92 6.6 43.8 64 0.4 32.6 6.972 0.274
07:31 1015 29.97 844 24.92 6.6 43.8 64 0.2 32.3 6.955 0.274
07:32 1015 29.97 844 24.92 6.6 43.8 64 0.3 32.6 6.984 0.275
07:33 1015 29.97 844 24.92 6.5 43.7 65 0.3 32.6 6.95 0.274
07:34 1015 29.97 844 24.92 6.5 43.7 65 0.4 32.6 6.882 0.271
07:35 1015 29.97 844 24.92 6.4 43.5 65 0.3 32.6 6.853 0.27
07:36 1015 29.97 844 24.92 6.4 43.5 65 0.4 32.7 6.825 0.269
07:37 1015 29.97 844 24.92 6.4 43.5 65 0.4 32.6 6.774 0.267
07:38 1015 29.97 844 24.92 6.4 43.5 66 0.5 32.8 6.786 0.267
07:39 1015 29.97 844 24.92 6.5 43.6 64 0.2 32.4 6.836 0.269
07:40 1015 29.97 844 24.92 6.6 43.9 64 0.4 32.7 6.961 0.274
07:41 1015 29.97 844 24.92 6.6 43.9 64 0.4 32.7 6.995 0.275
07:42 1015 29.97 844 24.92 6.6 43.9 64 0.3 32.6 7.02 0.276
07:43 1015 29.97 844 24.92 6.6 43.9 65 0.5 32.9 6.995 0.275
07:44 1015 29.97 844 24.92 6.5 43.7 64 0.2 32.4 6.933 0.273
07:45 1015 29.97 844 24.92 6.6 43.8 63 0 32 6.944 0.273
07:46 1015 29.97 844 24.92 6.7 44 62 0 32 7.03 0.277
07:47 1015 29.97 844 24.92 6.7 44.1 63 0.1 32.2 7.18 0.283
07:48 1015 29.97 844 24.92 6.7 44.1 63 0.3 32.5 7.16 0.282
07:49 1015 29.97 844 24.92 6.7 44.1 63 0.1 32.3 7.12 0.28
07:50 1015 29.97 844 24.92 6.8 44.2 62 0.1 32.2 7.15 0.281
07:51 1015 29.97 844 24.92 6.8 44.3 63 0.3 32.6 7.22 0.284
07:52 1015 29.97 844 24.92 6.9 44.3 62 0.1 32.1 7.26 0.286
07:53 1015 29.97 844 24.92 7 44.5 60 -0.3 31.4 7.35 0.289
07:54 1015 29.97 844 24.92 7.2 44.9 60 -0.1 31.8 7.53 0.296
07:55 1015 29.97 844 24.92 7.4 45.3 58 -0.3 31.5 7.73 0.304
07:56 1015 29.97 844 24.92 7.6 45.7 57 -0.4 31.3 7.95 0.313
07:57 1015 29.97 844 24.92 7.7 45.8 57 -0.2 31.6 8.06 0.317
07:58 1015 29.97 844 24.92 7.7 45.9 57 -0.3 31.5 8.08 0.318
07:59 1015 29.97 844 24.92 7.7 45.9 58 0.1 32.1 8.14 0.32
08:00 1015 29.97 844 24.92 7.7 45.9 56 -0.4 31.2 8.1 0.319
08:01 1015 29.97 844 24.92 7.8 46 57 -0.1 31.8 8.17 0.322
08:02 1015 29.97 844 24.92 7.7 45.9 59 0.2 32.4 8.16 0.321
08:03 1015 29.97 844 24.92 7.7 45.8 57 -0.2 31.6 8.09 0.319
08:04 1015 29.97 844 24.92 7.7 45.8 58 -0 31.9 8.05 0.317
08:05 1015 29.97 844 24.92 7.7 45.8 57 -0.3 31.4 8.05 0.317
08:06 1015 29.97 844 24.92 7.8 46 55 -0.6 30.9 8.18 0.322
08:07 1015 29.97 844 24.92 7.9 46.2 57 -0.2 31.6 8.27 0.326
08:08 1015 29.97 844 24.92 7.8 46.1 58 0.1 32.1 8.22 0.324
08:09 1015 29.97 844 24.92 7.8 46 57 -0.1 31.9 8.16 0.321
08:10 1015 29.97 844 24.92 7.8 46 57 -0.1 31.9 8.18 0.322
08:11 1015 29.97 844 24.92 7.7 45.9 57 -0.1 31.7 8.17 0.322
08:12 1015 29.97 844 24.92 7.7 45.9 57 -0.2 31.6 8.09 0.319
08:13 1015 29.97 844 24.92 7.7 45.9 58 -0.1 31.9 8.13 0.32
08:14 1015 29.97 844 24.92 7.7 45.8 59 0.2 32.4 8.06 0.317
08:15 1015 29.97 844 24.92 7.5 45.6 58 -0.1 31.9 7.92 0.312
08:16 1015 29.97 844 24.92 7.5 45.5 58 -0.3 31.4 7.92 0.312
08:17 1015 29.97 844 24.92 7.6 45.7 57 -0.4 31.3 8.01 0.315
08:18 1015 29.97 844 24.92 7.7 45.9 57 -0.2 31.6 8.1 0.319
08:19 1015 29.97 844 24.92 7.6 45.8 57 -0.3 31.5 8.06 0.317
08:20 1015 29.97 844 24.92 7.7 45.8 57 -0.2 31.6 8.07 0.318
08:21 1015 29.97 844 24.92 7.7 45.8 58 -0.1 31.9 8.08 0.318
08:22 1015 29.97 844 24.92 7.6 45.6 59 0.1 32.2 7.98 0.314
08:23 1015 29.97 844 24.92 7.4 45.4 60 0.1 32.2 7.86 0.309
08:24 1015 29.97 844 24.92 7.3 45.2 60 0 32.1 7.75 0.305
08:25 1015 29.97 844 24.92 7.3 45.1 60 -0 31.9 7.68 0.302
08:26 1015 29.97 844 24.92 7.4 45.2 57 -0.5 31.1 7.75 0.305
08:27 1015 29.97 844 24.92 7.5 45.5 59 -0 32 7.91 0.311
08:28 1015 29.97 844 24.92 7.5 45.5 59 -0.1 31.9 7.95 0.313
08:29 1015 29.97 844 24.92 7.5 45.5 60 0.2 32.4 7.89 0.311
08:30 1015 29.97 844 24.92 7.5 45.4 59 -0 32 7.85 0.309
08:31 1015 29.97 844 24.92 7.5 45.5 58 -0.1 31.8 7.91 0.311
08:32 1015 29.97 844 24.92 7.5 45.6 60 0.3 32.5 7.92 0.312
08:33 1015 29.97 844 24.92 7.4 45.3 60 0.2 32.4 7.81 0.307
08:34 1015 29.97 844 24.92 7.3 45.1 61 0.3 32.5 7.68 0.302
08:35 1015 29.97 844 24.92 7.1 44.9 62 0.4 32.7 7.51 0.296
08:36 1015 29.97 844 24.92 7 44.6 61 0.1 32.1 7.44 0.293
08:37 1015 29.97 844 24.92 7 44.7 62 0.2 32.3 7.43 0.293
08:38 1015 29.97 844 24.92 7 44.7 62 0.3 32.5 7.44 0.293
08:39 1015 29.97 844 24.92 7 44.5 61 -0 31.9 7.39 0.291
08:40 1015 29.97 845 24.95 7.1 44.7 60 -0.2 31.7 7.42 0.292
08:41 1015 29.97 845 24.95 7.2 44.9 60 0.1 32.1 7.55 0.297
08:42 1015 29.97 845 24.95 7.2 45 60 -0.1 31.9 7.63 0.3
08:43 1015 29.97 845 24.95 7.2 45 60 -0.1 31.9 7.62 0.3
08:44 1015 29.97 845 24.95 7.3 45.1 60 0.1 32.1 7.69 0.303
08:45 1015 29.97 844 24.92 7.3 45.1 58 -0.4 31.3 7.63 0.3
08:46 1015 29.97 844 24.92 7.4 45.3 58 -0.4 31.3 7.76 0.306
08:47 1015 29.97 844 24.92 7.5 45.6 58 -0.1 31.8 7.95 0.313
08:48 1015 29.97 844 24.92 7.6 45.7 58 -0 31.9 7.97 0.314
08:49 1015 29.97 844 24.92 7.6 45.7 57 -0.3 31.5 8.03 0.316
08:50 1015 29.97 844 24.92 7.7 45.9 58 -0 31.9 8.1 0.319
08:51 1015 29.97 844 24.92 7.7 45.8 58 -0 32 8.06 0.317
08:52 1015 29.97 844 24.92 7.6 45.7 59 0.1 32.2 8.02 0.316
08:53 1015 29.97 844 24.92 7.5 45.5 59 -0 31.9 7.94 0.313
08:54 1015 29.97 844 24.92 7.5 45.5 59 -0.1 31.9 7.9 0.311
08:55 1015 29.97 844 24.92 7.5 45.6 58 -0.1 31.7 7.94 0.313
08:56 1015 29.97 844 24.92 7.6 45.7 58 -0.1 31.9 8.02 0.316
08:57 1015 29.97 844 24.92 7.6 45.7 59 0 32 8 0.315
08:58 1015 29.97 844 24.92 7.6 45.7 58 0 32 7.99 0.315
08:59 1015 29.97 844 24.92 7.6 45.6 59 0.1 32.2 8.01 0.315
09:00 1015 29.97 844 24.92 7.5 45.5 59 0 32.1 7.89 0.311
09:01 1015 29.97 844 24.92 7.6 45.6 59 -0 32 7.96 0.313
09:02 1015 29.97 844 24.92 7.6 45.7 60 0.3 32.5 8.01 0.315
09:03 1015 29.97 844 24.92 7.6 45.6 60 0.3 32.6 8 0.315
09:04 1015 29.97 844 24.92 7.6 45.6 62 0.7 33.2 7.97 0.314
09:05 1015 29.97 844 24.92 7.5 45.5 62 0.8 33.4 7.94 0.313
09:06 1015 29.97 844 24.92 7.4 45.4 62 0.7 33.3 7.85 0.309
09:07 1015 29.97 844 24.92 7.3 45.2 63 0.7 33.3 7.78 0.306
09:08 1015 29.97 844 24.92 7.4 45.3 62 0.6 33.1 7.76 0.306
09:09 1015 29.97 844 24.92 7.5 45.4 57 -0.4 31.2 7.84 0.309
09:10 1015 29.97 844 24.92 7.7 45.8 57 -0.3 31.5 8.06 0.317
09:11 1015 29.97 844 24.92 7.9 46.1 57 -0 32 8.28 0.326
09:12 1015 29.97 844 24.92 8.1 46.5 54 -0.6 30.9 8.46 0.333
09:13 1015 29.97 844 24.92 8.4 47 53 -0.6 31 8.75 0.344
09:14 1015 29.97 844 24.92 8.6 47.4 52 -0.7 30.7 8.97 0.353
09:15 1015 29.97 844 24.92 8.7 47.6 51 -0.8 30.6 9.1 0.358
09:16 1015 29.97 844 24.92 8.7 47.7 53 -0.2 31.6 9.13 0.359
09:17 1015 29.97 844 24.92 8.7 47.7 54 -0.1 31.9 9.1 0.358
09:18 1015 29.97 844 24.92 8.7 47.7 51 -0.9 30.5 9.13 0.359
09:19 1015 29.97 844 24.92 8.9 48 51 -0.8 30.6 9.27 0.365
09:20 1015 29.97 844 24.92 8.9 48.1 52 -0.3 31.4 9.36 0.369
09:21 1015 29.97 844 24.92 8.9 48.1 52 -0.4 31.3 9.32 0.367
09:22 1015 29.97 844 24.92 9 48.1 51 -0.6 30.9 9.35 0.368
09:23 1015 29.97 844 24.92 9 48.2 51 -0.5 31.1 9.38 0.369
09:24 1015 29.97 844 24.92 9 48.2 52 -0.2 31.6 9.41 0.37
09:25 1015 29.97 844 24.92 9 48.1 53 0 32 9.36 0.369
09:26 1015 29.97 844 24.92 9 48.2 52 -0.3 31.5 9.33 0.367
09:27 1015 29.97 844 24.92 9 48.1 51 -0.5 31.1 9.37 0.369
09:28 1015 29.97 844 24.92 9 48.3 51 -0.7 30.8 9.45 0.372
09:29 1015 29.97 844 24.92 9.1 48.4 50 -0.7 30.8 9.54 0.376
09:30 1015 29.97 844 24.92 9.2 48.5 47 -1.4 29.4 9.58 0.377
09:31 1015 29.97 844 24.92 9.3 48.8 51 -0.3 31.4 9.77 0.385
09:32 1015 29.97 844 24.92 9.4 48.8 50 -0.5 31.1 9.77 0.385
09:33 1015 29.97 844 24.92 9.4 48.9 51 -0.2 31.7 9.82 0.387
09:34 1015 29.97 844 24.92 9.4 48.9 47 -1.3 29.7 9.81 0.386
09:35 1015 29.97 844 24.92 9.5 49.2 50 -0.3 31.5 9.95 0.392
09:36 1015 29.97 844 24.92 9.5 49.1 51 -0.1 31.9 9.91 0.39
09:37 1015 29.97 844 24.92 9.5 49 51 -0.1 31.8 9.9 0.39
09:38 1015 29.97 844 24.92 9.5 49.1 47 -1.2 29.8 9.9 0.39
09:39 1015 29.97 844 24.92 9.6 49.3 50 -0.3 31.5 9.99 0.393
09:40 1015 29.97 844 24.92 9.6 49.3 48 -1 30.3 10.02 0.394
09:41 1015 29.97 844 24.92 9.7 49.4 49 -0.5 31 10.05 0.396
09:42 1015 29.97 844 24.92 9.7 49.4 50 -0.1 31.7 10.11 0.398
09:43 1015 29.97 844 24.92 9.6 49.3 50 -0.1 31.8 10.01 0.394
09:44 1015 29.97 844 24.92 9.6 49.3 51 0.1 32.3 10.05 0.396
09:45 1015 29.97 844 24.92 9.6 49.4 52 0.2 32.4 10.03 0.395
09:46 1015 29.97 844 24.92 9.6 49.2 50 -0.3 31.4 10.02 0.394
09:47 1015 29.97 844 24.92 9.5 49.2 50 -0.3 31.5 9.95 0.392
09:48 1015 29.97 844 24.92 9.5 49.2 48 -0.8 30.6 9.97 0.393
09:49 1015 29.97 844 24.92 9.7 49.4 47 -1 30.3 10.07 0.396
09:50 1015 29.97 844 24.92 9.8 49.6 48 -0.5 31 10.17 0.4
09:51 1015 29.97 844 24.92 9.8 49.6 49 -0.3 31.4 10.18 0.401
09:52 1015 29.97 844 24.92 9.7 49.5 50 -0.1 31.8 10.12 0.398
09:53 1015 29.97 844 24.92 9.7 49.5 51 0.1 32.2 10.09 0.397
09:54 1015 29.97 844 24.92 9.7 49.5 51 0 32 10.14 0.399
09:55 1015 29.97 844 24.92 9.7 49.4 53 0.6 33.1 10.1 0.398
09:56 1015 29.97 844 24.92 9.6 49.3 50 -0.2 31.7 10.07 0.396
09:57 1015 29.97 844 24.92 9.7 49.4 50 -0.3 31.5 10.08 0.397
09:58 1015 29.97 844 24.92 9.7 49.4 50 -0.3 31.5 10.11 0.398
09:59 1015 29.97 844 24.92 9.7 49.5 51 0.2 32.4 10.12 0.398
10:00 1015 29.97 844 24.92 9.7 49.4 54 0.8 33.4 10.11 0.398
10:01 1015 29.97 844 24.92 9.7 49.5 52 0.5 32.9 10.08 0.397
10:02 1015 29.97 844 24.92 9.7 49.5 53 0.6 33.2 10.08 0.397
10:03 1015 29.97 844 24.92 9.7 49.5 50 -0.1 31.8 10.1 0.398
10:04 1015 29.97 844 24.92 9.7 49.5 51 0.1 32.2 10.1 0.398
10:05 1015 29.97 844 24.92 9.6 49.3 51 -0 31.9 10.03 0.395
10:06 1015 29.97 844 24.92 9.5 49.1 50 -0.2 31.6 9.94 0.391
10:07 1015 29.97 844 24.92 9.5 49.1 52 0.3 32.5 9.89 0.389
10:08 1015 29.97 844 24.92 9.5 49 52 0.2 32.4 9.84 0.387
10:09 1015 29.97 844 24.92 9.3 48.8 50 -0.5 31.2 9.77 0.385
10:10 1015 29.97 844 24.92 9.4 49 51 -0.2 31.7 9.78 0.385
10:11 1015 29.97 844 24.92 9.4 49 50 -0.4 31.3 9.82 0.387
10:12 1015 29.97 844 24.92 9.4 49 50 -0.5 31.2 9.82 0.387
10:13 1015 29.97 844 24.92 9.4 49 51 -0.1 31.8 9.88 0.389
10:14 1015 29.97 844 24.92 9.4 49 52 0 32.1 9.85 0.388
10:15 1015 29.97 844 24.92 9.4 48.9 50 -0.5 31 9.79 0.385
10:16 1015 29.97 844 24.92 9.4 48.8 52 0.1 32.2 9.76 0.384
10:17 1015 29.97 844 24.92 9.3 48.7 52 0 32 9.72 0.383
10:18 1015 29.97 844 24.92 9.2 48.6 53 0.3 32.5 9.62 0.379
10:19 1015 29.97 844 24.92 9.1 48.4 54 0.2 32.4 9.57 0.377
10:20 1015 29.97 844 24.92 9 48.3 56 0.7 33.2 9.49 0.374
10:21 1015 29.97 844 24.92 8.9 48.1 57 1 33.8 9.41 0.37
10:22 1015 29.97 844 24.92 8.9 48.1 56 0.7 33.2 9.36 0.369
10:23 1015 29.97 844 24.92 8.9 48.1 58 1.1 34 9.36 0.369
10:24 1015 29.97 844 24.92 8.9 48.1 57 0.8 33.5 9.36 0.369
10:25 1015 29.97 844 24.92 8.9 48.1 58 1.3 34.3 9.37 0.369
10:26 1015 29.97 844 24.92 8.9 48.1 54 0.2 32.4 9.39 0.37
10:27 1015 29.97 844 24.92 9 48.3 58 1.3 34.4 9.45 0.372
10:28 1015 29.97 844 24.92 9.1 48.4 56 0.8 33.4 9.52 0.375
10:29 1015 29.97 844 24.92 9.2 48.6 52 -0.2 31.6 9.63 0.379
10:30 1015 29.97 845 24.95 9.4 48.9 51 -0.3 31.5 9.81 0.386
10:31 1015 29.97 845 24.95 9.6 49.3 53 0.5 32.9 9.97 0.393
10:32 1015 29.97 845 24.95 9.6 49.2 53 0.5 32.9 10.01 0.394
10:33 1015 29.97 844 24.92 9.6 49.2 53 0.6 33 9.94 0.391
10:34 1015 29.97 844 24.92 9.5 49.2 53 0.5 33 9.93 0.391
10:35 1015 29.97 844 24.92 9.5 49.2 52 0.3 32.6 9.94 0.391
10:36 1015 29.97 845 24.95 9.5 49.2 54 0.6 33.1 9.95 0.392
10:37 1015 29.97 845 24.95 9.5 49.1 54 0.7 33.2 9.94 0.391
10:38 1015 29.97 844 24.92 9.5 49 54 0.6 33.1 9.87 0.389
10:39 1015 29.97 844 24.92 9.4 49 53 0.4 32.8 9.81 0.386
10:40 1015 29.97 844 24.92 9.5 49.1 49 -0.6 30.8 9.91 0.39
10:41 1015 29.97 844 24.92 9.7 49.4 51 0.1 32.1 10.04 0.395
10:42 1015 29.97 844 24.92 9.7 49.5 51 0.1 32.2 10.11 0.398
10:43 1015 29.97 844 24.92 9.7 49.5 53 0.6 33.2 10.14 0.399
10:44 1015 29.97 844 24.92 9.7 49.4 51 0.1 32.2 10.1 0.398
10:45 1015 29.97 844 24.92 9.7 49.4 53 0.6 33 10.06 0.396
10:46 1015 29.97 844 24.92 9.6 49.3 50 -0.2 31.7 10.02 0.394
10:47 1015 29.97 845 24.95 9.6 49.2 51 0 32 9.98 0.393
10:48 1015 29.97 844 24.92 9.6 49.2 51 -0.1 31.8 10.02 0.394
10:49 1015 29.97 844 24.92 9.6 49.3 54 0.7 33.3 10.03 0.395
10:50 1015 29.97 845 24.95 9.6 49.2 54 0.7 33.2 9.98 0.393
10:51 1015 29.97 845 24.95 9.5 49 54 0.6 33.1 9.87 0.389
10:52 1015 29.97 844 24.92 9.4 49 53 0.3 32.5 9.83 0.387
10:53 1015 29.97 844 24.92 9.6 49.2 49 -0.7 30.8 9.93 0.391
10:54 1015 29.97 844 24.92 9.7 49.4 50 -0.2 31.7 10.03 0.395
10:55 1015 29.97 844 24.92 9.6 49.4 51 0 32.1 10.03 0.395
10:56 1015 29.97 844 24.92 9.6 49.3 53 0.5 32.8 9.99 0.393
10:57 1015 29.97 844 24.92 9.5 49 53 0.3 32.5 9.9 0.39
10:58 1015 29.97 844 24.92 9.4 48.9 53 0.4 32.7 9.79 0.385
10:59 1015 29.97 844 24.92 9.3 48.8 54 0.4 32.8 9.75 0.384
11:00 1015 29.97 844 24.92 9.3 48.7 52 0.1 32.1 9.71 0.382
11:01 1015 29.97 844 24.92 9.4 48.9 52 0.1 32.3 9.75 0.384
11:02 1015 29.97 844 24.92 9.5 49.2 50 -0.4 31.3 9.95 0.392
11:03 1015 29.97 844 24.92 9.7 49.4 50 -0.2 31.7 10.08 0.397
11:04 1015 29.97 844 24.92 9.6 49.3 51 -0 31.9 10.04 0.395
11:05 1015 29.97 844 24.92 9.6 49.2 51 0.1 32.1 9.99 0.393
11:06 1015 29.97 844 24.92 9.5 49.2 51 0 32 9.93 0.391
11:07 1015 29.97 844 24.92 9.4 49 53 0.3 32.5 9.84 0.387
11:08 1015 29.97 844 24.92 9.3 48.8 53 0.2 32.4 9.71 0.382
11:09 1015 29.97 844 24.92 9.3 48.7 53 0.2 32.4 9.68 0.381
11:10 1015 29.97 844 24.92 9.2 48.6 52 0.1 32.1 9.65 0.38
11:11 1015 29.97 844 24.92 9.2 48.6 53 0.1 32.2 9.65 0.38
11:12 1015 29.97 844 24.92 9.2 48.5 54 0.5 32.9 9.59 0.378
11:13 1015 29.97 844 24.92 9.1 48.4 54 0.2 32.4 9.5 0.374
11:14 1015 29.97 844 24.92 9.2 48.5 53 0 32.1 9.55 0.376
11:15 1015 29.97 844 24.92 9.2 48.6 54 0.4 32.7 9.59 0.378
11:16 1015 29.97 844 24.92 9.2 48.6 54 0.4 32.8 9.64 0.38
11:17 1015 29.97 844 24.92 9.2 48.6 55 0.6 33 9.63 0.379
11:18 1015 29.97 844 24.92 9.2 48.6 54 0.4 32.7 9.62 0.379
11:19 1015 29.97 844 24.92 9.2 48.6 51 -0.5 31.1 9.63 0.379
11:20 1015 29.97 844 24.92 9.3 48.8 54 0.4 32.8 9.7 0.382
11:21 1015 29.97 844 24.92 9.4 49 49 -0.7 30.7 9.8 0.386
11:22 1015 29.97 844 24.92 9.6 49.3 51 -0 31.9 10.02 0.394
11:23 1015 29.97 844 24.92 9.6 49.3 51 0 32 9.99 0.393
11:24 1015 29.97 844 24.92 9.5 49.1 52 0.1 32.1 9.94 0.391
11:25 1015 29.97 844 24.92 9.5 49 54 0.5 33 9.86 0.388
11:26 1015 29.97 844 24.92 9.4 49 51 -0.2 31.7 9.86 0.388
11:27 1015 29.97 844 24.92 9.6 49.2 49 -0.5 31.1 9.94 0.391
11:28 1015 29.97 844 24.92 9.6 49.3 49 -0.4 31.2 10.01 0.394
11:29 1015 29.97 844 24.92 9.6 49.4 52 0.3 32.5 10.01 0.394
11:30 1015 29.97 844 24.92 9.5 49.2 50 -0.3 31.5 9.9 0.39
11:31 1015 29.97 844 24.92 9.5 49.1 51 0 32 9.88 0.389
11:32 1015 29.97 844 24.92 9.5 49.1 51 -0.1 31.7 9.9 0.39
11:33 1015 29.97 844 24.92 9.6 49.2 53 0.5 32.9 9.93 0.391
11:34 1015 29.97 844 24.92 9.5 49.1 50 -0.3 31.4 9.94 0.391
11:35 1015 29.97 844 24.92 9.6 49.2 52 0.2 32.3 9.95 0.392
11:36 1015 29.97 844 24.92 9.5 49.2 51 0 32 9.94 0.391
11:37 1015 29.97 844 24.92 9.5 49.1 53 0.5 32.9 9.88 0.389
11:38 1015 29.97 844 24.92 9.4 48.8 54 0.6 33.1 9.79 0.385
11:39 1015 29.97 844 24.92 9.3 48.7 53 0.3 32.6 9.7 0.382
11:40 1015 29.97 844 24.92 9.2 48.6 54 0.4 32.8 9.63 0.379
11:41 1015 29.97 844 24.92 9.3 48.7 46 -1.6 29.1 9.67 0.381
11:42 1015 29.97 844 24.92 9.7 49.4 47 -1.1 30 10.11 0.398
11:43 1015 29.97 844 24.92 10 49.9 47 -0.7 30.7 10.38 0.409
11:44 1015 29.97 844 24.92 10 50.1 47 -0.6 30.9 10.41 0.41
11:45 1015 29.97 844 24.92 10 50 49 -0.2 31.6 10.38 0.409
11:46 1015 29.97 844 24.92 9.9 49.9 48 -0.5 31.1 10.32 0.406
11:47 1015 29.97 844 24.92 10 50 49 -0.2 31.6 10.39 0.409
11:48 1015 29.97 844 24.92 9.9 49.9 50 -0 32 10.35 0.407
11:49 1015 29.97 844 24.92 9.8 49.7 51 0.3 32.5 10.26 0.404
11:50 1015 29.97 844 24.92 9.8 49.6 50 -0 32 10.17 0.4
11:51 1015 29.97 844 24.92 9.7 49.5 51 0.2 32.3 10.14 0.399
11:52 1015 29.97 844 24.92 9.6 49.4 52 0.3 32.6 10.07 0.396
11:53 1015 29.97 844 24.92 9.6 49.3 53 0.5 32.9 10.02 0.394
11:54 1015 29.97 844 24.92 9.6 49.3 51 -0 32 10.04 0.395
11:55 1015 29.97 844 24.92 9.8 49.6 51 0 32.1 10.14 0.399
11:56 1015 29.97 844 24.92 9.8 49.6 51 0.1 32.1 10.18 0.401
11:57 1015 29.97 844 24.92 9.7 49.5 46 -1.4 29.6 10.15 0.4
11:58 1015 29.97 844 24.92 9.9 49.7 52 0.4 32.8 10.31 0.406
11:59 1015 29.97 844 24.92 9.9 49.7 56 1.6 34.9 10.31 0.406
12:00 1015 29.97 844 24.92 9.7 49.4 56 1.3 34.3 10.15 0.4
12:01 1015 29.97 844 24.92 9.7 49.4 52 0.4 32.6 10.14 0.399
12:02 1015 29.97 844 24.92 9.8 49.6 54 0.9 33.7 10.19 0.401
12:03 1015 29.97 844 24.92 9.9 49.8 53 0.7 33.2 10.28 0.405
12:04 1015 29.97 844 24.92 9.9 49.9 54 1.1 33.9 10.33 0.407
12:05 1015 29.97 844 24.92 9.9 49.8 55 1.2 34.2 10.32 0.406
12:06 1015 29.97 844 24.92 9.9 49.8 55 1.2 34.2 10.28 0.405
12:07 1015 29.97 844 24.92 9.9 49.8 52 0.6 33.2 10.29 0.405
12:08 1015 29.97 844 24.92 9.9 49.9 54 1.1 33.9 10.33 0.407
12:09 1015 29.97 844 24.92 10 49.9 54 1 33.8 10.37 0.408
12:10 1015 29.97 844 24.92 10 50 51 0.3 32.6 10.42 0.41
12:11 1015 29.97 844 24.92 10.2 50.3 49 0.1 32.1 10.53 0.415
12:12 1015 29.97 844 24.92 10.3 50.5 49 -0 32 10.68 0.42
12:13 1014 29.94 844 24.92 10.5 50.9 48 -0 31.9 10.92 0.43
12:14 1015 29.97 844 24.92 10.7 51.2 46 -0.5 31.1 11.07 0.436
12:15 1015 29.97 844 24.92 10.8 51.4 48 0.2 32.4 11.15 0.439
12:16 1015 29.97 844 24.92 10.7 51.3 49 0.5 32.8 11.13 0.438
12:17 1015 29.97 844 24.92 10.7 51.2 51 0.9 33.5 11.07 0.436
12:18 1015 29.97 844 24.92 10.6 51 50 0.7 33.3 10.96 0.431
12:19 1015 29.97 844 24.92 10.5 50.9 49 0.3 32.5 10.91 0.43
12:20 1015 29.97 844 24.92 10.6 51 48 -0 32 10.97 0.432
12:21 1015 29.97 844 24.92 10.6 51 48 -0 31.9 10.99 0.433
12:22 1015 29.97 844 24.92 10.5 51 44 -1.3 29.6 10.94 0.431
12:23 1015 29.97 844 24.92 10.7 51.3 47 -0.2 31.7 11.11 0.437
12:24 1015 29.97 844 24.92 10.7 51.2 47 -0.1 31.9 11.05 0.435
12:25 1015 29.97 844 24.92 10.6 51.1 47 -0.3 31.5 11.02 0.434
12:26 1015 29.97 844 24.92 10.7 51.2 46 -0.3 31.4 11.02 0.434
12:27 1015 29.97 844 24.92 10.7 51.2 48 0.1 32.3 11.07 0.436
12:28 1015 29.97 844 24.92 10.6 51 48 0.2 32.4 10.98 0.432
12:29 1015 29.97 844 24.92 10.5 51 47 -0.2 31.7 10.97 0.432
12:30 1015 29.97 844 24.92 10.5 50.9 48 0 32 10.91 0.43
12:31 1014 29.94 844 24.92 10.5 50.8 43 -1.5 29.4 10.84 0.427
12:32 1014 29.94 844 24.92 10.6 51 45 -0.9 30.3 10.98 0.432
12:33 1014 29.94 844 24.92 10.6 51.1 44 -1.1 30 11.01 0.433
12:34 1014 29.94 844 24.92 10.6 51.2 47 -0.2 31.6 11.05 0.435
12:35 1014 29.94 844 24.92 10.6 51.1 45 -0.7 30.8 11.03 0.434
12:36 1014 29.94 844 24.92 10.6 51 49 0.3 32.6 10.98 0.432
12:37 1014 29.94 844 24.92 10.3 50.6 49 0.2 32.3 10.76 0.424
12:38 1014 29.94 844 24.92 10.2 50.3 47 -0.5 31.1 10.59 0.417
12:39 1014 29.94 844 24.92 10.3 50.5 47 -0.7 30.8 10.7 0.421
12:40 1014 29.94 844 24.92 10.4 50.7 48 -0.2 31.7 10.77 0.424
12:41 1014 29.94 844 24.92 10.4 50.7 48 0 32 10.77 0.424
12:42 1014 29.94 844 24.92 10.2 50.4 48 -0.1 31.7 10.63 0.419
12:43 1014 29.94 843 24.89 10.2 50.4 46 -0.7 30.7 10.62 0.418
12:44 1014 29.94 843 24.89 10.4 50.7 49 0.1 32.2 10.77 0.424
12:45 1014 29.94 843 24.89 10.4 50.6 48 -0.2 31.6 10.8 0.425
12:46 1014 29.94 843 24.89 10.4 50.7 49 0.2 32.4 10.79 0.425
12:47 1014 29.94 843 24.89 10.3 50.5 49 0.2 32.4 10.72 0.422
12:48 1014 29.94 843 24.89 10.3 50.5 49 0 32.1 10.64 0.419
12:49 1014 29.94 843 24.89 10.3 50.5 47 -0.3 31.4 10.63 0.419
12:50 1014 29.94 843 24.89 10.3 50.5 47 -0.6 31 10.68 0.42
12:51 1014 29.94 843 24.89 10.3 50.6 48 -0.3 31.5 10.73 0.422
12:52 1014 29.94 843 24.89 10.3 50.5 49 -0.1 31.9 10.71 0.422
12:53 1014 29.94 843 24.89 10.3 50.5 49 0.1 32.2 10.69 0.421
12:54 1014 29.94 843 24.89 10.3 50.5 49 0 32.1 10.7 0.421
12:55 1014 29.94 843 24.89 10.3 50.5 50 0.4 32.7 10.71 0.422
12:56 1014 29.94 843 24.89 10.2 50.4 51 0.6 33.1 10.61 0.418
12:57 1014 29.94 843 24.89 10.2 50.3 49 -0 32 10.58 0.417
12:58 1014 29.94 843 24.89 10.2 50.4 50 0.4 32.7 10.61 0.418
12:59 1014 29.94 843 24.89 10.2 50.3 50 0.2 32.3 10.59 0.417
13:00 1014 29.94 843 24.89 10.2 50.3 50 0.3 32.6 10.59 0.417
13:01 1014 29.94 843 24.89 10.2 50.3 49 -0 32 10.57 0.416
13:02 1014 29.94 843 24.89 10.2 50.4 49 0.2 32.3 10.61 0.418
13:03 1014 29.94 843 24.89 10.3 50.5 49 0.2 32.3 10.67 0.42
13:04 1014 29.94 843 24.89 10.2 50.3 49 -0.1 31.8 10.61 0.418
13:05 1014 29.94 843 24.89 10.2 50.4 50 0.3 32.6 10.61 0.418
13:06 1014 29.94 843 24.89 10.2 50.3 49 0.1 32.1 10.53 0.415
13:07 1014 29.94 843 24.89 10.1 50.2 51 0.5 32.8 10.54 0.415
13:08 1014 29.94 843 24.89 10.1 50.2 50 0.1 32.2 10.49 0.413
13:09 1014 29.94 843 24.89 10.1 50.1 51 0.3 32.6 10.51 0.414
13:10 1014 29.94 843 24.89 10.1 50.1 50 0.3 32.5 10.48 0.413
13:11 1014 29.94 843 24.89 10.1 50.2 50 0.1 32.2 10.49 0.413
13:12 1014 29.94 843 24.89 10.1 50.1 50 0.1 32.2 10.49 0.413
13:13 1014 29.94 843 24.89 10 50.1 51 0.3 32.5 10.46 0.412
13:14 1014 29.94 843 24.89 10 50 50 0.1 32.2 10.47 0.412
13:15 1014 29.94 843 24.89 10.1 50.2 48 -0.3 31.4 10.54 0.415
13:16 1014 29.94 843 24.89 10.3 50.6 46 -0.6 30.9 10.72 0.422
13:17 1014 29.94 843 24.89 10.5 50.8 47 -0.3 31.5 10.83 0.426
13:18 1014 29.94 843 24.89 10.4 50.7 52 1 33.8 10.79 0.425
13:19 1014 29.94 843 24.89 10.2 50.3 51 0.5 32.9 10.59 0.417
13:20 1014 29.94 843 24.89 10.1 50.1 53 1 33.8 10.42 0.41
13:21 1014 29.94 843 24.89 9.8 49.7 54 1 33.8 10.24 0.403
13:22 1014 29.94 843 24.89 9.6 49.3 56 1.3 34.3 10.04 0.395
13:23 1014 29.94 843 24.89 9.5 49 56 1.1 34 9.91 0.39
13:24 1014 29.94 843 24.89 9.4 48.9 55 1 33.8 9.89 0.389
13:25 1014 29.94 843 24.89 9.6 49.2 52 0.1 32.2 9.95 0.392
13:26 1014 29.94 843 24.89 9.8 49.6 53 0.8 33.5 10.2 0.402
13:27 1014 29.94 843 24.89 9.9 49.8 55 1.2 34.2 10.29 0.405
13:28 1014 29.94 843 24.89 10 50 53 0.9 33.6 10.4 0.409
13:29 1014 29.94 843 24.89 10 50 55 1.3 34.3 10.4 0.409
13:30 1014 29.94 843 24.89 9.9 49.9 54 1.2 34.1 10.35 0.407
13:31 1014 29.94 843 24.89 9.9 49.8 55 1.3 34.3 10.31 0.406
13:32 1014 29.94 843 24.89 9.8 49.6 55 1.1 34.1 10.23 0.403
13:33 1014 29.94 843 24.89 9.9 49.8 52 0.6 33.2 10.25 0.404
13:34 1014 29.94 843 24.89 9.9 49.9 50 0.1 32.2 10.33 0.407
13:35 1014 29.94 843 24.89 10 50 50 0.2 32.3 10.44 0.411
13:36 1014 29.94 843 24.89 10.1 50.1 48 -0.5 31.1 10.5 0.413
13:37 1014 29.94 843 24.89 10.3 50.5 48 -0.3 31.5 10.66 0.42
13:38 1014 29.94 843 24.89 10.3 50.6 49 0.1 32.2 10.75 0.423
13:39 1014 29.94 843 24.89 10.4 50.6 48 -0.2 31.6 10.76 0.424
13:40 1014 29.94 843 24.89 10.4 50.8 49 0.2 32.3 10.84 0.427
13:41 1014 29.94 843 24.89 10.5 50.9 49 0.2 32.3 10.88 0.428
13:42 1014 29.94 843 24.89 10.5 50.8 49 0.2 32.4 10.84 0.427
13:43 1014 29.94 843 24.89 10.5 50.9 47 -0.2 31.7 10.87 0.428
13:44 1014 29.94 843 24.89 10.5 50.9 49 0.2 32.3 10.88 0.428
13:45 1014 29.94 843 24.89 10.4 50.7 51 0.7 33.3 10.81 0.426
13:46 1014 29.94 843 24.89 10.3 50.6 51 0.6 33.1 10.75 0.423
13:47 1014 29.94 843 24.89 10.3 50.5 52 0.9 33.6 10.65 0.419
13:48 1014 29.94 843 24.89 10.2 50.3 51 0.6 33.1 10.59 0.417
13:49 1014 29.94 843 24.89 10.2 50.3 52 0.9 33.6 10.58 0.417
13:50 1014 29.94 843 24.89 10.1 50.2 51 0.5 32.9 10.52 0.414
13:51 1014 29.94 843 24.89 10.1 50.1 52 0.8 33.4 10.48 0.413
13:52 1014 29.94 843 24.89 10.2 50.3 51 0.5 32.9 10.51 0.414
13:53 1014 29.94 843 24.89 10.2 50.4 51 0.5 33 10.62 0.418
13:54 1014 29.94 843 24.89 10.2 50.4 52 0.8 33.4 10.63 0.419
13:55 1014 29.94 843 24.89 10.2 50.4 48 -0.3 31.4 10.61 0.418
13:56 1014 29.94 843 24.89 10.3 50.6 52 1 33.7 10.73 0.422
13:57 1014 29.94 843 24.89 10.3 50.6 51 0.6 33 10.74 0.423
13:58 1014 29.94 843 24.89 10.3 50.5 52 0.9 33.7 10.7 0.421
13:59 1014 29.94 843 24.89 10.1 50.2 54 1.4 34.4 10.53 0.415
14:00 1014 29.94 843 24.89 9.9 49.9 57 1.8 35.2 10.36 0.408
14:01 1014 29.94 843 24.89 9.7 49.4 55 1 33.9 10.2 0.402
14:02 1014 29.94 843 24.89 9.7 49.5 56 1.3 34.4 10.1 0.398
14:03 1014 29.94 843 24.89 9.7 49.4 55 1.1 33.9 10.11 0.398
14:04 1014 29.94 843 24.89 9.8 49.6 57 1.7 35 10.15 0.4
14:05 1014 29.94 843 24.89 9.7 49.5 55 1.1 33.9 10.15 0.4
14:06 1014 29.94 843 24.89 9.8 49.6 51 0.1 32.1 10.18 0.401
14:07 1014 29.94 843 24.89 10.1 50.1 49 -0.2 31.7 10.46 0.412
14:08 1014 29.94 843 24.89 10.4 50.7 47 -0.3 31.5 10.83 0.426
14:09 1014 29.94 843 24.89 10.5 51 50 0.5 32.9 10.96 0.431
14:10 1014 29.94 843 24.89 10.5 50.9 48 0 32 10.87 0.428
14:11 1014 29.94 843 24.89 10.4 50.7 49 0.1 32.3 10.82 0.426
14:12 1014 29.94 843 24.89 10.4 50.8 50 0.4 32.6 10.8 0.425
14:13 1014 29.94 843 24.89 10.3 50.5 51 0.6 33.2 10.71 0.422
14:14 1014 29.94 843 24.89 10.3 50.5 49 0.2 32.3 10.67 0.42
14:15 1014 29.94 843 24.89 10.4 50.7 47 -0.5 31.1 10.75 0.423
14:16 1014 29.94 843 24.89 10.7 51.2 45 -0.7 30.8 11.05 0.435
14:17 1014 29.94 843 24.89 10.9 51.6 46 -0.2 31.7 11.27 0.444
14:18 1014 29.94 843 24.89 10.9 51.6 45 -0.4 31.3 11.31 0.445
14:19 1014 29.94 843 24.89 10.9 51.6 50 0.9 33.6 11.33 0.446
14:20 1014 29.94 843 24.89 10.7 51.2 52 1.3 34.3 11.1 0.437
14:21 1014 29.94 843 24.89 10.3 50.6 53 1.2 34.1 10.78 0.424
14:22 1014 29.94 843 24.89 10.2 50.3 52 0.8 33.4 10.58 0.417
14:23 1014 29.94 843 24.89 10.2 50.4 49 0.1 32.2 10.65 0.419
14:24 1014 29.94 843 24.89 10.3 50.5 51 0.7 33.3 10.72 0.422
14:25 1014 29.94 843 24.89 10.2 50.4 51 0.7 33.2 10.63 0.419
14:26 1014 29.94 843 24.89 10.2 50.3 52 0.7 33.2 10.55 0.415
14:27 1014 29.94 843 24.89 10.2 50.3 51 0.6 33 10.59 0.417
14:28 1014 29.94 843 24.89 10.2 50.4 51 0.7 33.2 10.64 0.419
14:29 1014 29.94 843 24.89 10.2 50.3 50 0.2 32.3 10.58 0.417
14:30 1014 29.94 843 24.89 10.2 50.4 50 0.3 32.5 10.64 0.419
14:31 1014 29.94 843 24.89 10.2 50.4 53 1.2 34.1 10.63 0.419
14:32 1014 29.94 843 24.89 10.1 50.2 51 0.6 33 10.54 0.415
14:33 1014 29.94 843 24.89 10.1 50.2 53 0.9 33.6 10.49 0.413
14:34 1014 29.94 843 24.89 10.1 50.3 48 -0.4 31.3 10.57 0.416
14:35 1014 29.94 843 24.89 10.3 50.6 50 0.3 32.5 10.73 0.422
14:36 1014 29.94 843 24.89 10.5 50.8 48 0.1 32.2 10.82 0.426
14:37 1014 29.94 843 24.89 10.5 51 50 0.6 33.1 10.95 0.431
14:38 1014 29.94 843 24.89 10.5 50.8 53 1.2 34.2 10.85 0.427
14:39 1014 29.94 843 24.89 10.3 50.5 52 1 33.7 10.69 0.421
14:40 1014 29.94 843 24.89 10.2 50.3 54 1.3 34.3 10.61 0.418
14:41 1014 29.94 843 24.89 10.1 50.1 54 1.3 34.4 10.49 0.413
14:42 1014 29.94 843 24.89 10 50 54 1.3 34.3 10.4 0.409
14:43 1014 29.94 843 24.89 10 50 53 1 33.8 10.37 0.408
14:44 1014 29.94 843 24.89 10 50 52 0.8 33.4 10.46 0.412
14:45 1014 29.94 843 24.89 10.1 50.1 52 0.7 33.3 10.44 0.411
14:46 1014 29.94 843 24.89 10 50 55 1.4 34.4 10.42 0.41
14:47 1014 29.94 843 24.89 9.9 49.9 53 1 33.7 10.36 0.408
14:48 1014 29.94 843 24.89 10 49.9 51 0.4 32.8 10.36 0.408
14:49 1014 29.94 843 24.89 10.1 50.1 51 0.6 33 10.47 0.412
14:50 1014 29.94 843 24.89 10.2 50.4 47 -0.4 31.3 10.64 0.419
14:51 1014 29.94 843 24.89 10.5 50.9 48 0.1 32.2 10.9 0.429
14:52 1014 29.94 843 24.89 10.6 51 51 0.8 33.5 10.98 0.432
14:53 1014 29.94 843 24.89 10.4 50.8 51 0.7 33.2 10.84 0.427
14:54 1014 29.94 843 24.89 10.4 50.6 50 0.5 32.9 10.77 0.424
14:55 1014 29.94 843 24.89 10.5 50.8 50 0.6 33.2 10.84 0.427
14:56 1014 29.94 843 24.89 10.6 51 49 0.4 32.7 10.93 0.43
14:57 1014 29.94 843 24.89 10.6 51.1 49 0.3 32.5 11.02 0.434
14:58 1014 29.94 843 24.89 10.6 51.2 49 0.3 32.6 11.05 0.435
14:59 1014 29.94 843 24.89 10.6 51.2 51 0.9 33.6 11.05 0.435
15:00 1014 29.94 843 24.89 10.5 51 51 0.8 33.5 10.96 0.431
15:01 1014 29.94 843 24.89 10.5 50.9 52 1.1 34.1 10.9 0.429
15:02 1014 29.94 843 24.89 10.4 50.7 49 0.2 32.4 10.77 0.424
15:03 1014 29.94 843 24.89 10.5 50.9 48 0.1 32.2 10.9 0.429
15:04 1014 29.94 843 24.89 10.7 51.2 48 0.1 32.1 11.09 0.437
15:05 1014 29.94 843 24.89 10.8 51.5 49 0.7 33.2 11.24 0.443
15:06 1014 29.94 843 24.89 10.8 51.4 47 0.1 32.1 11.15 0.439
15:07 1014 29.94 843 24.89 10.8 51.4 50 0.7 33.3 11.19 0.441
15:08 1013 29.91 843 24.89 10.8 51.4 48 0.1 32.2 11.19 0.441
15:09 1013 29.91 843 24.89 10.9 51.6 46 -0.3 31.4 11.31 0.445
15:10 1013 29.91 843 24.89 11.1 52 45 -0.4 31.3 11.5 0.453
15:11 1013 29.91 843 24.89 11.1 52 46 -0.1 31.7 11.54 0.454
15:12 1014 29.94 843 24.89 11.1 52.1 46 0.1 32.1 11.54 0.454
15:13 1014 29.94 843 24.89 11.1 51.9 48 0.6 33.2 11.49 0.452
15:14 1014 29.94 843 24.89 11 51.8 48 0.6 33 11.4 0.449
15:15 1014 29.94 843 24.89 10.9 51.7 47 0.1 32.2 11.33 0.446
15:16 1014 29.94 843 24.89 10.9 51.7 49 0.6 33 11.36 0.447
15:17 1014 29.94 843 24.89 10.9 51.6 48 0.4 32.8 11.26 0.443
15:18 1014 29.94 843 24.89 10.8 51.5 48 0.1 32.3 11.22 0.442
15:19 1013 29.91 843 24.89 10.8 51.4 45 -0.6 30.9 11.23 0.442
15:20 1014 29.94 843 24.89 11 51.8 46 0 32 11.44 0.45
15:21 1014 29.94 843 24.89 11 51.8 47 0.3 32.5 11.41 0.449
15:22 1014 29.94 843 24.89 11.1 51.9 45 -0.5 31.1 11.42 0.45
15:23 1013 29.91 843 24.89 11.3 52.3 44 -0.6 31 11.66 0.459
15:24 1013 29.91 843 24.89 11.4 52.5 44 -0.4 31.3 11.79 0.464
15:25 1014 29.94 843 24.89 11.4 52.4 47 0.4 32.8 11.78 0.464
15:26 1013 29.91 843 24.89 11.1 52 45 -0.2 31.7 11.51 0.453
15:27 1013 29.91 843 24.89 11.1 52 43 -0.8 30.5 11.49 0.452
15:28 1013 29.91 843 24.89 11.3 52.4 42 -1.1 30.1 11.72 0.461
15:29 1013 29.91 842 24.86 11.4 52.6 44 -0.2 31.6 11.88 0.468
15:30 1013 29.91 843 24.89 11.4 52.6 45 0.1 32.2 11.81 0.465
15:31 1013 29.91 843 24.89 11.3 52.4 45 -0.2 31.7 11.76 0.463
15:32 1013 29.91 843 24.89 11.4 52.5 46 0.1 32.2 11.79 0.464
15:33 1013 29.91 843 24.89 11.3 52.4 45 -0.2 31.6 11.74 0.462
15:34 1013 29.91 843 24.89 11.2 52.2 46 0.2 32.4 11.63 0.458
15:35 1013 29.91 843 24.89 11.1 52.1 46 0.1 32.1 11.54 0.454
15:36 1013 29.91 843 24.89 11.1 51.9 47 0.3 32.6 11.45 0.451
15:37 1013 29.91 843 24.89 11 51.8 46 -0.2 31.6 11.45 0.451
15:38 1013 29.91 842 24.86 11.1 52 45 -0.2 31.6 11.54 0.454
15:39 1013 29.91 843 24.89 11.2 52.2 48 0.6 33 11.57 0.456
15:40 1013 29.91 843 24.89 11.1 52 46 0 32 11.48 0.452
15:41 1013 29.91 843 24.89 11.1 52.1 45 -0.2 31.7 11.57 0.456
15:42 1013 29.91 843 24.89 11.2 52.1 46 -0.1 31.8 11.61 0.457
15:43 1014 29.94 843 24.89 11.3 52.3 47 0.6 33 11.62 0.457
15:44 1014 29.94 843 24.89 11.1 52 45 -0.2 31.6 11.5 0.453
15:45 1013 29.91 843 24.89 11.2 52.2 46 -0.1 31.9 11.58 0.456
15:46 1013 29.91 843 24.89 11.2 52.2 47 0.3 32.6 11.61 0.457
15:47 1013 29.91 843 24.89 11.2 52.1 43 -0.9 30.4 11.59 0.456
15:48 1014 29.94 843 24.89 11.2 52.2 48 0.7 33.2 11.69 0.46
15:49 1013 29.91 843 24.89 11.1 52 46 -0 31.9 11.54 0.454
15:50 1014 29.94 843 24.89 11 51.8 48 0.6 33 11.37 0.448
15:51 1014 29.94 843 24.89 10.8 51.4 49 0.6 33 11.18 0.44
15:52 1013 29.91 843 24.89 10.7 51.2 49 0.4 32.7 11.09 0.437
15:53 1013 29.91 843 24.89 10.7 51.2 49 0.3 32.6 11.07 0.436
15:54 1013 29.91 843 24.89 10.8 51.4 47 -0 32 11.16 0.439
15:55 1014 29.94 843 24.89 10.9 51.6 48 0.2 32.4 11.3 0.445
15:56 1013 29.91 843 24.89 10.9 51.6 48 0.2 32.4 11.32 0.446
15:57 1013 29.91 843 24.89 10.9 51.7 46 -0.1 31.8 11.33 0.446
15:58 1013 29.91 843 24.89 11 51.8 47 0.1 32.3 11.4 0.449
15:59 1013 29.91 843 24.89 11 51.8 48 0.5 33 11.41 0.449
16:00 1013 29.91 843 24.89 11 51.7 48 0.4 32.8 11.39 0.448
16:01 1013 29.91 843 24.89 11 51.7 48 0.4 32.8 11.41 0.449
16:02 1013 29.91 843 24.89 11 51.8 45 -0.6 31 11.44 0.45
16:03 1013 29.91 842 24.86 11.1 52.1 45 -0.3 31.4 11.52 0.454
16:04 1013 29.91 842 24.86 11.2 52.1 45 -0.4 31.3 11.55 0.455
16:05 1013 29.91 842 24.86 11.2 52.2 44 -0.6 30.9 11.62 0.457
16:06 1013 29.91 842 24.86 11.3 52.4 45 -0 32 11.66 0.459
16:07 1013 29.91 842 24.86 11.3 52.3 46 0 32 11.63 0.458
16:08 1013 29.91 842 24.86 11.3 52.4 43 -0.9 30.5 11.72 0.461
16:09 1013 29.91 842 24.86 11.4 52.6 44 -0.4 31.2 11.82 0.465
16:10 1013 29.91 842 24.86 11.5 52.7 43 -0.6 30.9 11.93 0.47
16:11 1013 29.91 842 24.86 11.5 52.8 45 0 32.1 11.93 0.47
16:12 1013 29.91 842 24.86 11.4 52.6 41 -1.2 29.9 11.86 0.467
16:13 1013 29.91 842 24.86 11.6 52.8 43 -0.6 31 11.96 0.471
16:14 1013 29.91 842 24.86 11.6 52.8 44 -0.1 31.8 11.95 0.47
16:15 1013 29.91 842 24.86 11.5 52.7 44 -0.3 31.5 11.91 0.469
16:16 1013 29.91 842 24.86 11.4 52.6 47 0.5 32.8 11.84 0.466
16:17 1013 29.91 842 24.86 11.3 52.3 45 -0.3 31.4 11.69 0.46
16:18 1013 29.91 842 24.86 11.3 52.4 45 -0.2 31.6 11.72 0.461
16:19 1013 29.91 842 24.86 11.5 52.6 45 -0.1 31.8 11.88 0.468
16:20 1013 29.91 842 24.86 11.6 52.8 43 -0.7 30.8 11.96 0.471
16:21 1013 29.91 842 24.86 11.6 52.8 45 -0 32 11.98 0.472
16:22 1013 29.91 842 24.86 11.6 52.9 45 0 32.1 12.01 0.473
16:23 1013 29.91 842 24.86 11.7 53.1 43 -0.4 31.3 12.14 0.478
16:24 1013 29.91 842 24.86 11.8 53.2 45 0.2 32.3 12.21 0.481
16:25 1013 29.91 842 24.86 11.7 53.1 44 -0.2 31.7 12.15 0.478
16:26 1013 29.91 842 24.86 11.7 53.1 43 -0.3 31.4 12.17 0.479
16:27 1013 29.91 842 24.86 11.7 53.1 45 0.1 32.3 12.14 0.478
16:28 1013 29.91 842 24.86 11.7 53 44 -0.3 31.5 12.07 0.475
16:29 1013 29.91 842 24.86 11.6 52.9 45 0.1 32.2 12.02 0.473
16:30 1013 29.91 842 24.86 11.5 52.8 43 -0.6 30.9 11.94 0.47
16:31 1013 29.91 843 24.89 11.6 52.8 47 0.7 33.3 11.97 0.471
16:32 1013 29.91 842 24.86 11.5 52.6 42 -1.1 30.1 11.84 0.466
16:33 1013 29.91 842 24.86 11.5 52.7 44 -0.3 31.5 11.88 0.468
16:34 1013 29.91 842 24.86 11.5 52.7 44 -0.2 31.6 11.91 0.469
16:35 1013 29.91 842 24.86 11.6 53 41 -1 30.1 12.04 0.474
16:36 1013 29.91 842 24.86 11.7 53 44 -0.2 31.6 12.03 0.474
16:37 1013 29.91 842 24.86 11.6 52.8 46 0.5 32.9 11.95 0.47
16:38 1013 29.91 842 24.86 11.4 52.6 47 0.6 33 11.81 0.465
16:39 1013 29.91 843 24.89 11.4 52.4 47 0.4 32.8 11.73 0.462
16:40 1013 29.91 842 24.86 11.4 52.5 43 -0.8 30.6 11.79 0.464
16:41 1013 29.91 842 24.86 11.5 52.6 46 0.3 32.6 11.83 0.466
16:42 1013 29.91 842 24.86 11.3 52.4 43 -0.9 30.4 11.71 0.461
16:43 1013 29.91 842 24.86 11.5 52.6 44 -0.3 31.5 11.84 0.466
16:44 1013 29.91 842 24.86 11.5 52.6 45 -0 32 11.85 0.467
16:45 1013 29.91 842 24.86 11.4 52.4 46 0.3 32.5 11.72 0.461
16:46 1013 29.91 842 24.86 11.2 52.2 42 -1.3 29.7 11.64 0.458
16:47 1013 29.91 842 24.86 11.4 52.4 42 -0.9 30.3 11.8 0.465
16:48 1013 29.91 842 24.86 11.5 52.6 43 -0.7 30.7 11.86 0.467
16:49 1013 29.91 842 24.86 11.4 52.6 43 -0.5 31.1 11.83 0.466
16:50 1013 29.91 842 24.86 11.4 52.5 44 -0.2 31.6 11.79 0.464
16:51 1013 29.91 842 24.86 11.4 52.4 44 -0.5 31.2 11.7 0.461
16:52 1013 29.91 842 24.86 11.3 52.4 43 -0.8 30.6 11.76 0.463
16:53 1013 29.91 842 24.86 11.4 52.4 44 -0.3 31.5 11.75 0.463
16:54 1013 29.91 843 24.89 11.2 52.2 44 -0.5 31 11.63 0.458
16:55 1013 29.91 842 24.86 11.2 52.2 44 -0.4 31.2 11.61 0.457
16:56 1013 29.91 842 24.86 11.2 52.2 45 -0.4 31.3 11.63 0.458
16:57 1013 29.91 842 24.86 11.2 52.2 46 0.2 32.3 11.58 0.456
16:58 1013 29.91 842 24.86 11.1 52.1 43 -0.9 30.4 11.53 0.454
16:59 1013 29.91 842 24.86 11.2 52.2 45 -0.2 31.6 11.63 0.458
17:00 1013 29.91 842 24.86 11.3 52.4 42 -0.9 30.3 11.71 0.461
17:01 1013 29.91 842 24.86 11.4 52.4 41 -1.5 29.3 11.77 0.463
17:02 1013 29.91 843 24.89 11.3 52.4 42 -1 30.3 11.71 0.461
17:03 1013 29.91 843 24.89 11.4 52.4 41 -1.4 29.5 11.75 0.463
17:04 1013 29.91 843 24.89 11.4 52.5 43 -0.5 31 11.8 0.465
17:05 1013 29.91 843 24.89 11.3 52.3 41 -1.5 29.3 11.69 0.46
17:06 1013 29.91 843 24.89 11.3 52.4 42 -1.2 29.9 11.75 0.463
17:07 1013 29.91 843 24.89 11.4 52.5 41 -1.3 29.7 11.8 0.465
17:08 1013 29.91 843 24.89 11.4 52.5 43 -0.5 31 11.82 0.465
17:09 1013 29.91 843 24.89 11.4 52.5 42 -1 30.1 11.79 0.464
17:10 1013 29.91 843 24.89 11.4 52.5 43 -0.5 31 11.81 0.465
17:11 1013 29.91 843 24.89 11.3 52.4 44 -0.6 30.9 11.69 0.46
17:12 1013 29.91 843 24.89 11.3 52.3 41 -1.4 29.5 11.69 0.46
17:13 1013 29.91 843 24.89 11.3 52.3 43 -0.9 30.4 11.69 0.46
17:14 1013 29.91 843 24.89 11.3 52.3 43 -0.8 30.6 11.64 0.458
17:15 1013 29.91 843 24.89 11.2 52.2 44 -0.6 31 11.67 0.459
17:16 1013 29.91 843 24.89 11.2 52.1 45 -0.3 31.4 11.58 0.456
17:17 1013 29.91 843 24.89 11.2 52.1 42 -1.2 29.8 11.56 0.455
17:18 1013 29.91 842 24.86 11.3 52.3 41 -1.3 29.6 11.69 0.46
17:19 1013 29.91 843 24.89 11.3 52.3 44 -0.4 31.3 11.7 0.461
17:20 1013 29.91 843 24.89 11.2 52.1 45 -0.4 31.3 11.6 0.457
17:21 1013 29.91 843 24.89 11.1 52 45 -0.3 31.4 11.5 0.453
17:22 1013 29.91 843 24.89 11.1 51.9 42 -1.4 29.5 11.5 0.453
17:23 1013 29.91 843 24.89 11.2 52.2 42 -1.1 30 11.67 0.459
17:24 1013 29.91 843 24.89 11.3 52.3 42 -1.1 30 11.69 0.46
17:25 1013 29.91 843 24.89 11.3 52.4 42 -1 30.1 11.7 0.461
17:26 1013 29.91 843 24.89 11.2 52.2 43 -0.7 30.7 11.62 0.457
17:27 1013 29.91 843 24.89 11.1 52 45 -0.2 31.6 11.55 0.455
17:28 1013 29.91 842 24.86 11.1 51.9 44 -0.5 31 11.46 0.451
17:29 1013 29.91 843 24.89 11.1 51.9 42 -1.2 29.9 11.43 0.45
17:30 1013 29.91 843 24.89 11.2 52.1 43 -0.8 30.5 11.55 0.455
17:31 1014 29.94 843 24.89 11.2 52.1 44 -0.5 31.2 11.54 0.454
17:32 1014 29.94 843 24.89 11.1 51.9 45 -0.2 31.6 11.45 0.451
17:33 1014 29.94 843 24.89 11 51.8 43 -1.2 29.8 11.37 0.448
17:34 1014 29.94 843 24.89 11 51.9 42 -1.3 29.7 11.44 0.45
17:35 1013 29.91 843 24.89 11.2 52.1 42 -1.1 30.1 11.55 0.455
17:36 1013 29.91 843 24.89 11.2 52.2 41 -1.6 29 11.6 0.457
17:37 1013 29.91 842 24.86 11.3 52.3 41 -1.3 29.6 11.65 0.459
17:38 1013 29.91 842 24.86 11.4 52.4 42 -1.1 30.1 11.75 0.463
17:39 1013 29.91 842 24.86 11.3 52.4 41 -1.4 29.6 11.68 0.46
17:40 1013 29.91 843 24.89 11.4 52.5 39 -2 28.4 11.77 0.463
17:41 1013 29.91 843 24.89 11.3 52.4 42 -1.2 29.9 11.75 0.463
17:42 1013 29.91 842 24.86 11.3 52.3 41 -1.4 29.5 11.71 0.461
17:43 1013 29.91 842 24.86 11.3 52.4 42 -1.1 30 11.67 0.459
17:44 1013 29.91 843 24.89 11.4 52.5 42 -0.9 30.4 11.74 0.462
17:45 1013 29.91 843 24.89 11.3 52.3 41 -1.4 29.6 11.69 0.46
17:46 1013 29.91 842 24.86 11.3 52.4 43 -0.7 30.7 11.72 0.461
17:47 1013 29.91 842 24.86 11.2 52.1 42 -1.1 29.9 11.57 0.456
17:48 1013 29.91 842 24.86 11.1 52.1 41 -1.4 29.5 11.56 0.455
17:49 1013 29.91 843 24.89 11.1 52 45 -0.4 31.3 11.48 0.452
17:50 1013 29.91 843 24.89 10.8 51.5 45 -0.6 31 11.27 0.444
17:51 1013 29.91 843 24.89 10.9 51.5 43 -1.2 29.8 11.26 0.443
17:52 1013 29.91 843 24.89 11 51.8 44 -0.8 30.5 11.43 0.45
17:53 1013 29.91 843 24.89 11 51.8 44 -0.9 30.4 11.42 0.45
17:54 1013 29.91 843 24.89 11 51.8 43 -1 30.3 11.39 0.448
17:55 1013 29.91 843 24.89 11 51.8 43 -1.1 30 11.44 0.45
17:56 1013 29.91 843 24.89 11 51.8 44 -0.8 30.6 11.41 0.449
17:57 1013 29.91 843 24.89 10.9 51.7 44 -0.7 30.8 11.29 0.444
17:58 1013 29.91 843 24.89 10.9 51.7 44 -0.8 30.5 11.34 0.446
17:59 1013 29.91 843 24.89 10.9 51.7 45 -0.4 31.3 11.36 0.447
18:00 1013 29.91 843 24.89 10.8 51.5 45 -0.7 30.7 11.23 0.442
18:01 1013 29.91 843 24.89 10.8 51.4 45 -0.7 30.8 11.18 0.44
18:02 1014 29.94 843 24.89 10.7 51.3 46 -0.4 31.3 11.15 0.439
18:03 1013 29.91 843 24.89 10.7 51.2 44 -0.9 30.4 11.1 0.437
18:04 1013 29.91 843 24.89 10.7 51.2 43 -1.4 29.5 11.07 0.436
18:05 1013 29.91 843 24.89 10.8 51.5 42 -1.7 28.9 11.24 0.443
18:06 1013 29.91 843 24.89 10.9 51.7 45 -0.4 31.2 11.34 0.446
18:07 1014 29.94 843 24.89 10.9 51.5 46 -0.2 31.6 11.28 0.444
18:08 1014 29.94 843 24.89 10.8 51.5 47 0.1 32.1 11.25 0.443
18:09 1014 29.94 843 24.89 10.8 51.4 43 -1.2 29.9 11.22 0.442
18:10 1014 29.94 843 24.89 10.9 51.6 45 -0.7 30.8 11.29 0.444
18:11 1013 29.91 843 24.89 10.9 51.6 43 -1 30.2 11.32 0.446
18:12 1014 29.94 843 24.89 11 51.7 44 -0.7 30.8 11.38 0.448
18:13 1014 29.94 843 24.89 11 51.8 44 -0.6 30.9 11.42 0.45
18:14 1014 29.94 843 24.89 11 51.9 42 -1.2 29.8 11.44 0.45
18:15 1014 29.94 843 24.89 11.1 52 43 -1 30.1 11.5 0.453
18:16 1013 29.91 843 24.89 11.2 52.1 42 -1.2 29.9 11.56 0.455
18:17 1013 29.91 843 24.89 11.1 52 42 -1.3 29.6 11.52 0.454
18:18 1014 29.94 843 24.89 11.1 51.9 44 -0.7 30.7 11.45 0.451
18:19 1014 29.94 843 24.89 11 51.7 42 -1.3 29.6 11.37 0.448
18:20 1014 29.94 843 24.89 11 51.7 44 -0.9 30.5 11.35 0.447
18:21 1013 29.91 843 24.89 11 51.8 43 -1 30.1 11.39 0.448
18:22 1013 29.91 843 24.89 11 51.9 43 -1.1 29.9 11.41 0.449
18:23 1013 29.91 843 24.89 11.1 52 43 -1 30.1 11.51 0.453
18:24 1014 29.94 843 24.89 11.1 51.9 42 -1.3 29.7 11.45 0.451
18:25 1014 29.94 843 24.89 11 51.8 42 -1.5 29.4 11.37 0.448
18:26 1013 29.91 843 24.89 11.1 52 40 -2.1 28.3 11.51 0.453
18:27 1013 29.91 843 24.89 11.3 52.3 41 -1.4 29.5 11.72 0.461
18:28 1014 29.94 843 24.89 11.3 52.4 42 -1.1 30 11.68 0.46
18:29 1014 29.94 843 24.89 11.2 52.1 43 -0.8 30.5 11.58 0.456
18:30 1014 29.94 843 24.89 11.1 52 43 -1 30.2 11.5 0.453
18:31 1014 29.94 843 24.89 11.1 51.9 42 -1.3 29.7 11.44 0.45
18:32 1014 29.94 843 24.89 11 51.9 42 -1.4 29.6 11.44 0.45
18:33 1014 29.94 843 24.89 11.1 51.9 44 -0.7 30.8 11.49 0.452
18:34 1014 29.94 843 24.89 11 51.8 45 -0.5 31.2 11.36 0.447
18:35 1014 29.94 843 24.89 10.9 51.6 43 -1.1 30.1 11.28 0.444
18:36 1014 29.94 843 24.89 10.9 51.7 44 -0.7 30.7 11.32 0.446
18:37 1014 29.94 843 24.89 10.9 51.7 44 -0.8 30.6 11.37 0.448
18:38 1014 29.94 843 24.89 11 51.7 43 -1 30.1 11.36 0.447
18:39 1014 29.94 843 24.89 11 51.8 43 -1 30.2 11.43 0.45
18:40 1014 29.94 843 24.89 11 51.9 44 -0.8 30.5 11.46 0.451
18:41 1014 29.94 843 24.89 11 51.9 44 -0.6 30.9 11.4 0.449
18:42 1014 29.94 843 24.89 10.9 51.6 43 -1.2 29.9 11.3 0.445
18:43 1014 29.94 843 24.89 11 51.7 46 -0.2 31.7 11.32 0.446
18:44 1014 29.94 843 24.89 10.8 51.4 44 -0.9 30.4 11.19 0.441
18:45 1014 29.94 843 24.89 10.8 51.4 43 -1.2 29.8 11.19 0.441
18:46 1014 29.94 843 24.89 10.8 51.4 47 -0.1 31.9 11.17 0.44
18:47 1014 29.94 843 24.89 10.6 51 47 -0.3 31.5 10.96 0.431
18:48 1014 29.94 843 24.89 10.5 50.8 42 -1.8 28.7 10.87 0.428
18:49 1014 29.94 843 24.89 10.7 51.3 43 -1.3 29.7 11.07 0.436
18:50 1014 29.94 843 24.89 10.9 51.5 44 -1 30.2 11.27 0.444
18:51 1014 29.94 843 24.89 10.9 51.6 43 -1.2 29.8 11.32 0.446
18:52 1014 29.94 843 24.89 10.9 51.6 42 -1.3 29.6 11.26 0.443
18:53 1014 29.94 843 24.89 10.9 51.6 44 -0.9 30.5 11.3 0.445
18:54 1014 29.94 843 24.89 10.9 51.5 42 -1.4 29.5 11.28 0.444
18:55 1014 29.94 843 24.89 10.9 51.7 44 -0.8 30.6 11.3 0.445
18:56 1014 29.94 843 24.89 10.8 51.5 44 -0.9 30.3 11.24 0.443
18:57 1014 29.94 843 24.89 10.8 51.4 43 -1.3 29.7 11.17 0.44
18:58 1014 29.94 843 24.89 10.8 51.4 43 -1.3 29.7 11.17 0.44
18:59 1014 29.94 843 24.89 10.8 51.4 44 -1 30.2 11.19 0.441
19:00 1014 29.94 843 24.89 10.8 51.4 43 -1.1 30 11.19 0.441
19:01 1014 29.94 843 24.89 10.8 51.4 44 -0.9 30.4 11.13 0.438
19:02 1014 29.94 843 24.89 10.7 51.2 44 -0.9 30.3 11.05 0.435
19:03 1014 29.94 843 24.89 10.6 51.2 44 -1 30.2 11.03 0.434
19:04 1014 29.94 843 24.89 10.7 51.2 45 -0.8 30.5 11.11 0.437
19:05 1014 29.94 843 24.89 10.6 51 45 -0.7 30.7 11.01 0.433
19:06 1014 29.94 843 24.89 10.6 51 43 -1.5 29.4 10.95 0.431
19:07 1014 29.94 843 24.89 10.7 51.2 44 -0.9 30.3 11.07 0.436
19:08 1014 29.94 843 24.89 10.7 51.3 43 -1.4 29.4 11.1 0.437
19:09 1014 29.94 843 24.89 10.7 51.3 44 -1 30.1 11.14 0.439
19:10 1014 29.94 843 24.89 10.8 51.4 42 -1.7 29 11.16 0.439
19:11 1014 29.94 843 24.89 10.9 51.6 44 -0.7 30.7 11.25 0.443
19:12 1014 29.94 843 24.89 10.7 51.3 44 -0.9 30.3 11.15 0.439
19:13 1014 29.94 843 24.89 10.7 51.2 42 -1.6 29.2 11.05 0.435
19:14 1014 29.94 843 24.89 10.8 51.4 42 -1.6 29.1 11.23 0.442
19:15 1014 29.94 843 24.89 10.9 51.6 42 -1.3 29.6 11.32 0.446
19:16 1014 29.94 843 24.89 10.9 51.5 43 -1.1 30 11.26 0.443
19:17 1014 29.94 843 24.89 10.8 51.4 44 -1 30.2 11.17 0.44
19:18 1014 29.94 843 24.89 10.7 51.3 44 -1 30.2 11.1 0.437
19:19 1014 29.94 843 24.89 10.7 51.2 42 -1.6 29.1 11.02 0.434
19:20 1014 29.94 843 24.89 10.7 51.2 44 -1 30.2 11.06 0.435
19:21 1014 29.94 843 24.89 10.6 51.1 43 -1.3 29.7 11.01 0.433
19:22 1014 29.94 843 24.89 10.6 51.1 45 -0.7 30.7 11.01 0.433
19:23 1014 29.94 843 24.89 10.5 50.8 44 -1.1 30.1 10.84 0.427
19:24 1014 29.94 843 24.89 10.5 50.9 44 -1.1 30 10.9 0.429
19:25 1014 29.94 843 24.89 10.6 51 44 -1.2 29.8 11 0.433
19:26 1014 29.94 843 24.89 10.5 51 46 -0.7 30.8 10.93 0.43
19:27 1014 29.94 843 24.89 10.4 50.7 45 -1 30.2 10.77 0.424
19:28 1014 29.94 843 24.89 10.4 50.6 43 -1.6 29.1 10.75 0.423
19:29 1014 29.94 843 24.89 10.5 51 44 -1.2 29.9 10.9 0.429
19:30 1014 29.94 843 24.89 10.5 51 44 -1.1 30 10.9 0.429
19:31 1014 29.94 843 24.89 10.5 51 45 -0.7 30.7 10.93 0.43
19:32 1014 29.94 843 24.89 10.4 50.7 47 -0.5 31.1 10.78 0.424
19:33 1014 29.94 843 24.89 10.3 50.5 45 -1.1 29.9 10.64 0.419
19:34 1014 29.94 843 24.89 10.3 50.5 48 -0.3 31.4 10.68 0.42
19:35 1014 29.94 843 24.89 10.2 50.3 45 -1.1 30 10.55 0.415
19:36 1014 29.94 843 24.89 10.2 50.4 48 -0.2 31.6 10.63 0.419
19:37 1014 29.94 843 24.89 10.1 50.3 43 -1.7 28.9 10.54 0.415
19:38 1014 29.94 843 24.89 10.3 50.6 46 -0.9 30.5 10.74 0.423
19:39 1014 29.94 843 24.89 10.3 50.6 45 -1 30.1 10.73 0.422
19:40 1014 29.94 843 24.89 10.4 50.7 46 -0.8 30.6 10.77 0.424
19:41 1014 29.94 843 24.89 10.3 50.5 45 -1.2 29.8 10.66 0.42
19:42 1014 29.94 843 24.89 10.3 50.5 43 -1.6 29.1 10.68 0.42
19:43 1014 29.94 843 24.89 10.4 50.6 46 -0.9 30.4 10.75 0.423
19:44 1014 29.94 843 24.89 10.4 50.6 44 -1.2 29.9 10.73 0.422
19:45 1014 29.94 843 24.89 10.3 50.6 44 -1.3 29.7 10.72 0.422
19:46 1014 29.94 843 24.89 10.3 50.5 45 -1.1 30 10.65 0.419
19:47 1014 29.94 843 24.89 10.2 50.4 48 -0.4 31.3 10.55 0.415
19:48 1014 29.94 843 24.89 10.1 50.1 47 -0.7 30.8 10.46 0.412
19:49 1014 29.94 843 24.89 10.1 50.1 47 -0.6 30.8 10.41 0.41
19:50 1014 29.94 843 24.89 9.9 49.9 49 -0.3 31.5 10.34 0.407
19:51 1014 29.94 843 24.89 9.7 49.5 49 -0.5 31 10.08 0.397
19:52 1014 29.94 843 24.89 9.6 49.4 48 -0.7 30.7 10.02 0.394
19:53 1014 29.94 843 24.89 9.7 49.5 47 -0.9 30.4 10.18 0.401
19:54 1014 29.94 843 24.89 9.9 49.7 48 -0.7 30.8 10.23 0.403
19:55 1014 29.94 843 24.89 9.8 49.6 49 -0.5 31.2 10.18 0.401
19:56 1014 29.94 843 24.89 9.6 49.4 49 -0.6 31 10.03 0.395
19:57 1014 29.94 843 24.89 9.7 49.4 48 -0.7 30.8 10.12 0.398
19:58 1014 29.94 843 24.89 9.8 49.6 47 -0.8 30.5 10.17 0.4
19:59 1014 29.94 843 24.89 9.8 49.6 47 -1 30.1 10.2 0.402
20:00 1014 29.94 843 24.89 9.9 49.8 46 -1.1 30 10.3 0.406
20:01 1014 29.94 843 24.89 9.9 49.8 48 -0.6 30.9 10.33 0.407
20:02 1014 29.94 843 24.89 9.8 49.6 49 -0.3 31.5 10.2 0.402
20:03 1014 29.94 844 24.92 9.6 49.2 48 -0.8 30.6 9.98 0.393
20:04 1014 29.94 844 24.92 9.5 49.1 49 -0.7 30.7 9.9 0.39
20:05 1014 29.94 843 24.89 9.5 49 48 -0.8 30.5 9.86 0.388
20:06 1014 29.94 843 24.89 9.5 49.1 49 -0.6 30.9 9.87 0.389
20:07 1014 29.94 843 24.89 9.5 49.1 48 -0.9 30.4 9.94 0.391
20:08 1014 29.94 843 24.89 9.6 49.3 49 -0.6 31 9.97 0.393
20:09 1014 29.94 843 24.89 9.6 49.2 48 -0.8 30.5 9.95 0.392
20:10 1014 29.94 843 24.89 9.6 49.3 48 -0.9 30.4 10.03 0.395
20:11 1014 29.94 843 24.89 9.7 49.4 49 -0.6 30.9 10.07 0.396
20:12 1014 29.94 843 24.89 9.7 49.5 48 -0.8 30.5 10.14 0.399
20:13 1014 29.94 843 24.89 9.7 49.5 49 -0.4 31.2 10.15 0.4
20:14 1014 29.94 843 24.89 9.6 49.4 49 -0.6 30.9 10.04 0.395
20:15 1014 29.94 843 24.89 9.6 49.3 48 -0.9 30.3 9.98 0.393
20:16 1014 29.94 843 24.89 9.5 49.2 46 -1.3 29.6 9.95 0.392
20:17 1014 29.94 843 24.89 9.6 49.3 49 -0.6 30.9 10.01 0.394
20:18 1014 29.94 843 24.89 9.6 49.2 49 -0.7 30.8 9.97 0.393
20:19 1014 29.94 843 24.89 9.5 49.2 49 -0.5 31 9.93 0.391
20:20 1014 29.94 843 24.89 9.5 49 49 -0.6 30.9 9.84 0.387
20:21 1014 29.94 843 24.89 9.4 48.9 49 -0.6 30.8 9.8 0.386
20:22 1014 29.94 843 24.89 9.4 48.8 49 -0.8 30.6 9.76 0.384
20:23 1014 29.94 843 24.89 9.5 49.1 49 -0.8 30.6 9.89 0.389
20:24 1014 29.94 843 24.89 9.5 49.1 48 -0.9 30.5 9.93 0.391
20:25 1014 29.94 843 24.89 9.6 49.2 46 -1.4 29.5 9.99 0.393
20:26 1014 29.94 843 24.89 9.7 49.4 45 -1.5 29.3 10.11 0.398
20:27 1014 29.94 843 24.89 9.9 49.7 45 -1.5 29.2 10.28 0.405
20:28 1014 29.94 843 24.89 9.9 49.8 47 -0.8 30.5 10.32 0.406
20:29 1014 29.94 843 24.89 9.8 49.7 46 -1.3 29.7 10.23 0.403
20:30 1014 29.94 843 24.89 9.7 49.5 47 -1 30.2 10.17 0.4
20:31 1014 29.94 843 24.89 9.6 49.3 47 -1.2 29.8 10 0.394
20:32 1014 29.94 843 24.89 9.6 49.2 46 -1.3 29.6 9.95 0.392
20:33 1014 29.94 843 24.89 9.6 49.2 48 -0.8 30.6 9.97 0.393
20:34 1014 29.94 843 24.89 9.5 49.1 47 -1.2 29.9 9.9 0.39
20:35 1014 29.94 844 24.92 9.5 49.1 49 -0.5 31 9.94 0.391
20:36 1014 29.94 844 24.92 9.4 48.9 50 -0.5 31.1 9.8 0.386
20:37 1014 29.94 844 24.92 9.3 48.8 49 -0.7 30.7 9.7 0.382
20:38 1014 29.94 844 24.92 9.2 48.6 49 -1 30.2 9.64 0.38
20:39 1014 29.94 844 24.92 9.3 48.7 50 -0.7 30.8 9.68 0.381
20:40 1015 29.97 844 24.92 9.2 48.6 49 -1 30.2 9.64 0.38
20:41 1015 29.97 844 24.92 9.2 48.5 50 -0.7 30.8 9.6 0.378
20:42 1015 29.97 844 24.92 9.2 48.5 48 -1.2 29.9 9.55 0.376
20:43 1015 29.97 844 24.92 9.2 48.5 50 -0.7 30.8 9.57 0.377
20:44 1015 29.97 844 24.92 9.1 48.4 50 -0.8 30.5 9.55 0.376
20:45 1015 29.97 844 24.92 9.1 48.5 50 -0.6 31 9.53 0.375
20:46 1015 29.97 844 24.92 9.1 48.3 49 -1 30.2 9.47 0.373
20:47 1015 29.97 844 24.92 9.1 48.4 47 -1.4 29.4 9.52 0.375
20:48 1015 29.97 844 24.92 9.3 48.7 49 -0.8 30.6 9.64 0.38
20:49 1015 29.97 844 24.92 9.3 48.7 48 -1.1 30.1 9.65 0.38
20:50 1015 29.97 844 24.92 9.4 48.8 47 -1.3 29.7 9.76 0.384
20:51 1015 29.97 844 24.92 9.5 49 47 -1.3 29.6 9.82 0.387
20:52 1015 29.97 844 24.92 9.5 49.2 47 -1.1 30 9.95 0.392
20:53 1015 29.97 844 24.92 9.5 49.1 47 -1.2 29.8 9.94 0.391
20:54 1015 29.97 844 24.92 9.5 49 48 -0.9 30.4 9.86 0.388
20:55 1015 29.97 844 24.92 9.4 48.9 48 -1.1 30 9.81 0.386
20:56 1015 29.97 844 24.92 9.4 49 48 -1 30.2 9.79 0.385
20:57 1015 29.97 844 24.92 9.3 48.7 48 -1 30.2 9.71 0.382
20:58 1015 29.97 844 24.92 9.2 48.5 50 -0.7 30.8 9.58 0.377
20:59 1015 29.97 844 24.92 9.1 48.4 49 -0.9 30.3 9.5 0.374
21:00 1015 29.97 844 24.92 9.1 48.3 50 -0.8 30.5 9.47 0.373
21:01 1015 29.97 844 24.92 9 48.3 49 -1 30.2 9.41 0.37
21:02 1015 29.97 844 24.92 9 48.3 50 -0.9 30.3 9.42 0.371
21:03 1015 29.97 844 24.92 9 48.2 50 -0.9 30.4 9.39 0.37
21:04 1015 29.97 844 24.92 9 48.1 51 -0.7 30.8 9.35 0.368
21:05 1015 29.97 844 24.92 9 48.1 49 -1.1 30 9.33 0.367
21:06 1015 29.97 844 24.92 9 48.2 51 -0.7 30.8 9.39 0.37
21:07 1015 29.97 844 24.92 9.1 48.3 48 -1.2 29.8 9.43 0.371
21:08 1015 29.97 844 24.92 9.3 48.7 46 -1.7 28.9 9.76 0.384
21:09 1015 29.97 844 24.92 9.5 49.1 48 -1 30.3 9.86 0.388
21:10 1015 29.97 844 24.92 9.4 48.9 48 -1.1 30 9.8 0.386
21:11 1015 29.97 844 24.92 9.3 48.7 49 -0.8 30.6 9.69 0.381
21:12 1015 29.97 844 24.92 9.2 48.5 49 -1.1 30.1 9.57 0.377
21:13 1015 29.97 844 24.92 9.2 48.5 48 -1.3 29.6 9.51 0.374
21:14 1015 29.97 844 24.92 9.1 48.4 49 -0.9 30.4 9.51 0.374
21:15 1015 29.97 844 24.92 9.1 48.4 49 -1 30.2 9.5 0.374
21:16 1015 29.97 844 24.92 9.1 48.4 49 -1.1 30 9.51 0.374
21:17 1015 29.97 844 24.92 9.1 48.3 50 -0.8 30.5 9.47 0.373
21:18 1015 29.97 844 24.92 9.1 48.4 49 -1.1 30.1 9.49 0.374
21:19 1015 29.97 844 24.92 9.1 48.3 48 -1.2 29.9 9.48 0.373
21:20 1015 29.97 844 24.92 9.1 48.3 50 -0.8 30.6 9.46 0.372
21:21 1015 29.97 844 24.92 9 48.2 50 -1 30.3 9.38 0.369
21:22 1015 29.97 844 24.92 9 48.2 50 -0.8 30.6 9.41 0.37
21:23 1015 29.97 844 24.92 9 48.2 49 -1.3 29.7 9.41 0.37
21:24 1015 29.97 844 24.92 9 48.3 50 -0.9 30.4 9.43 0.371
21:25 1015 29.97 844 24.92 8.9 48.1 50 -1 30.2 9.36 0.369
21:26 1015 29.97 844 24.92 8.9 48 51 -0.7 30.7 9.28 0.365
21:27 1015 29.97 844 24.92 8.8 47.8 50 -1 30.1 9.18 0.361
21:28 1015 29.97 844 24.92 8.8 47.9 50 -1.1 30.1 9.22 0.363
21:29 1015 29.97 844 24.92 8.8 47.9 51 -0.7 30.7 9.27 0.365
21:30 1015 29.97 844 24.92 8.8 47.8 50 -1.2 29.9 9.16 0.361
21:31 1015 29.97 844 24.92 8.8 47.8 51 -0.8 30.6 9.18 0.361
21:32 1015 29.97 844 24.92 8.8 47.9 49 -1.2 29.8 9.24 0.364
21:33 1015 29.97 844 24.92 8.9 48.1 50 -0.9 30.4 9.33 0.367
21:34 1015 29.97 844 24.92 8.9 47.9 52 -0.6 31 9.25 0.364
21:35 1015 29.97 844 24.92 8.8 47.8 51 -0.7 30.7 9.15 0.36
21:36 1015 29.97 844 24.92 8.7 47.6 51 -0.8 30.5 9.11 0.359
21:37 1015 29.97 844 24.92 8.7 47.7 51 -0.8 30.5 9.08 0.357
21:38 1015 29.97 844 24.92 8.7 47.6 50 -1.2 29.9 9.09 0.358
21:39 1015 29.97 844 24.92 8.7 47.7 51 -0.7 30.7 9.14 0.36
21:40 1015 29.97 844 24.92 8.7 47.7 51 -0.8 30.6 9.09 0.358
21:41 1015 29.97 844 24.92 8.7 47.6 50 -1 30.1 9.05 0.356
21:42 1015 29.97 844 24.92 8.7 47.6 50 -1.1 29.9 9.04 0.356
21:43 1015 29.97 844 24.92 8.7 47.6 51 -1 30.2 9.06 0.357
21:44 1015 29.97 844 24.92 8.6 47.6 50 -1.2 29.9 9.06 0.357
21:45 1015 29.97 844 24.92 8.7 47.6 51 -0.8 30.5 9.08 0.357
21:46 1015 29.97 844 24.92 8.6 47.5 49 -1.4 29.5 9.06 0.357
21:47 1015 29.97 844 24.92 8.7 47.6 51 -1 30.3 9.08 0.357
21:48 1015 29.97 844 24.92 8.7 47.6 51 -0.9 30.4 9.06 0.357
21:49 1015 29.97 844 24.92 8.6 47.5 50 -1.2 29.9 9.06 0.357
21:50 1015 29.97 844 24.92 8.6 47.5 51 -0.9 30.3 9.07 0.357
21:51 1015 29.97 844 24.92 8.6 47.5 52 -0.6 30.9 9.01 0.355
21:52 1015 29.97 844 24.92 8.5 47.3 52 -0.7 30.7 8.94 0.352
21:53 1015 29.97 844 24.92 8.5 47.3 51 -0.9 30.4 8.9 0.35
21:54 1015 29.97 844 24.92 8.5 47.2 52 -0.8 30.5 8.86 0.349
21:55 1015 29.97 845 24.95 8.5 47.2 52 -0.8 30.5 8.85 0.348
21:56 1015 29.97 845 24.95 8.4 47.1 52 -0.9 30.3 8.82 0.347
21:57 1015 29.97 845 24.95 8.4 47.2 50 -1.2 29.8 8.83 0.348
21:58 1015 29.97 845 24.95 8.5 47.3 51 -0.9 30.4 8.9 0.35
21:59 1015 29.97 845 24.95 8.5 47.3 53 -0.6 30.9 8.88 0.35
22:00 1015 29.97 845 24.95 8.4 47.1 52 -0.8 30.6 8.8 0.346
22:01 1015 29.97 845 24.95 8.3 47 52 -0.9 30.4 8.75 0.344
22:02 1015 29.97 845 24.95 8.3 47 53 -0.6 30.9 8.74 0.344
22:03 1015 29.97 845 24.95 8.3 46.9 52 -0.9 30.4 8.66 0.341
22:04 1015 29.97 845 24.95 8.3 46.9 53 -0.7 30.8 8.72 0.343
22:05 1015 29.97 845 24.95 8.2 46.8 52 -1 30.3 8.62 0.339
22:06 1016 30 845 24.95 8.2 46.8 52 -1 30.2 8.65 0.341
22:07 1015 29.97 845 24.95 8.2 46.8 52 -0.9 30.4 8.64 0.34
22:08 1016 30 845 24.95 8.2 46.8 53 -0.8 30.6 8.64 0.34
22:09 1016 30 845 24.95 8.2 46.7 54 -0.6 30.9 8.58 0.338
22:10 1016 30 845 24.95 8.1 46.5 53 -1 30.1 8.52 0.335
22:11 1016 30 845 24.95 8.1 46.6 53 -0.8 30.5 8.54 0.336
22:12 1016 30 845 24.95 8.1 46.6 54 -0.7 30.7 8.5 0.335
22:13 1016 30 845 24.95 8 46.4 55 -0.6 31 8.45 0.333
22:14 1016 30 845 24.95 8 46.4 54 -0.7 30.8 8.36 0.329
22:15 1016 30 845 24.95 8 46.3 54 -0.7 30.8 8.32 0.328
22:16 1016 30 845 24.95 8 46.3 55 -0.6 30.9 8.35 0.329
22:17 1016 30 845 24.95 7.9 46.2 54 -0.7 30.7 8.33 0.328
22:18 1016 30 845 24.95 7.9 46.2 54 -0.9 30.5 8.32 0.328
22:19 1016 30 845 24.95 7.9 46.2 55 -0.5 31 8.28 0.326
22:20 1016 30 845 24.95 7.9 46.1 54 -0.8 30.6 8.27 0.326
22:21 1016 30 845 24.95 7.9 46.2 55 -0.7 30.8 8.29 0.326
22:22 1016 30 845 24.95 7.9 46.2 55 -0.6 30.9 8.26 0.325
22:23 1016 30 845 24.95 7.9 46.1 55 -0.6 30.8 8.25 0.325
22:24 1016 30 845 24.95 7.9 46.1 55 -0.7 30.7 8.26 0.325
22:25 1016 30 845 24.95 7.9 46.2 55 -0.7 30.8 8.3 0.327
22:26 1016 30 845 24.95 7.9 46.2 55 -0.6 30.9 8.3 0.327
22:27 1016 30 845 24.95 7.9 46.1 55 -0.6 31 8.23 0.324
22:28 1016 30 845 24.95 7.8 46.1 55 -0.6 30.9 8.18 0.322
22:29 1016 30 845 24.95 7.8 46.1 54 -0.9 30.5 8.2 0.323
22:30 1016 30 845 24.95 7.8 46.1 55 -0.7 30.7 8.27 0.326
22:31 1016 30 845 24.95 7.9 46.2 54 -0.9 30.4 8.32 0.328
22:32 1016 30 845 24.95 7.9 46.2 54 -0.7 30.7 8.32 0.328
22:33 1016 30 845 24.95 7.9 46.2 55 -0.5 31 8.25 0.325
22:34 1016 30 845 24.95 7.8 46.1 56 -0.5 31.1 8.19 0.322
22:35 1016 30 845 24.95 7.8 46 55 -0.8 30.6 8.2 0.323
22:36 1016 30 845 24.95 7.8 46 55 -0.6 30.9 8.2 0.323
22:37 1016 30 845 24.95 7.7 45.9 56 -0.4 31.4 8.14 0.32
22:38 1016 30 845 24.95 7.7 45.8 56 -0.5 31.1 8.1 0.319
22:39 1016 30 845 24.95 7.6 45.7 56 -0.5 31.1 8.02 0.316
22:40 1016 30 845 24.95 7.6 45.6 56 -0.6 30.9 8 0.315
22:41 1016 30 845 24.95 7.6 45.6 56 -0.6 30.9 7.97 0.314
22:42 1016 30 845 24.95 7.6 45.6 56 -0.7 30.7 8 0.315
22:43 1016 30 845 24.95 7.6 45.8 57 -0.4 31.2 8.05 0.317
22:44 1016 30 845 24.95 7.6 45.6 58 -0.1 31.8 8 0.315
22:45 1016 30 845 24.95 7.5 45.5 58 -0.1 31.8 7.91 0.311
22:46 1016 30 845 24.95 7.3 45.1 59 -0.2 31.7 7.76 0.306
22:47 1016 30 845 24.95 7.1 44.8 60 -0.1 31.8 7.62 0.3
22:48 1016 30 845 24.95 7 44.5 62 0.1 32.2 7.41 0.292
22:49 1016 30 845 24.95 6.8 44.2 62 0.1 32.3 7.24 0.285
22:50 1016 30 845 24.95 6.6 43.9 63 0.1 32.2 7.07 0.278
22:51 1016 30 845 24.95 6.5 43.6 65 0.3 32.5 6.922 0.273
22:52 1016 30 845 24.95 6.3 43.4 64 0.1 32.2 6.78 0.267
22:53 1016 30 845 24.95 6.2 43.2 64 0 32.1 6.656 0.262
22:54 1016 30 845 24.95 6.2 43.2 64 -0.2 31.7 6.605 0.26
22:55 1016 30 845 24.95 6.2 43.2 63 -0.2 31.6 6.605 0.26
22:56 1016 30 845 24.95 6.3 43.3 63 -0.2 31.6 6.667 0.262
22:57 1016 30 845 24.95 6.3 43.3 63 -0.2 31.6 6.679 0.263
22:58 1016 30 845 24.95 6.3 43.4 62 -0.4 31.3 6.713 0.264
22:59 1016 30 845 24.95 6.4 43.5 62 -0.3 31.4 6.764 0.266
23:00 1016 30 845 24.95 6.4 43.5 62 -0.4 31.3 6.769 0.266
23:01 1016 30 845 24.95 6.4 43.4 63 -0.3 31.5 6.752 0.266
23:02 1016 30 845 24.95 6.3 43.3 63 -0.2 31.6 6.741 0.265
23:03 1016 30 845 24.95 6.2 43.2 63 -0.2 31.6 6.651 0.262
23:04 1016 30 845 24.95 6.1 43 63 -0.3 31.4 6.537 0.257
23:05 1016 30 845 24.95 6.1 43 64 -0.3 31.5 6.492 0.256
23:06 1016 30 845 24.95 6.1 42.9 64 -0.3 31.5 6.424 0.253
23:07 1016 30 845 24.95 6 42.8 64 -0.3 31.5 6.39 0.252
23:08 1016 30 845 24.95 6 42.7 64 -0.4 31.3 6.373 0.251
23:09 1016 30 845 24.95 6 42.8 64 -0.4 31.4 6.345 0.25
23:10 1016 30 845 24.95 6 42.7 64 -0.4 31.3 6.379 0.251
23:11 1016 30 845 24.95 6 42.7 64 -0.4 31.3 6.34 0.25
23:12 1016 30 845 24.95 6 42.8 63 -0.5 31 6.351 0.25
23:13 1016 30 845 24.95 6 42.8 63 -0.5 31 6.385 0.251
23:14 1016 30 845 24.95 6 42.8 63 -0.6 31 6.402 0.252
23:15 1016 30 845 24.95 6.1 42.9 62 -0.6 31 6.47 0.255
23:16 1016 30 845 24.95 6.1 42.9 62 -0.6 31 6.453 0.254
23:17 1016 30 845 24.95 6.1 43 62 -0.6 30.8 6.458 0.254
23:18 1016 30 845 24.95 6.1 43 62 -0.7 30.7 6.509 0.256
23:19 1016 30 845 24.95 6.1 43 61 -0.8 30.6 6.509 0.256
23:20 1016 30 845 24.95 6.2 43.1 61 -0.8 30.6 6.538 0.257
23:21 1016 30 845 24.95 6.2 43.2 61 -0.7 30.7 6.509 0.256
23:22 1016 30 845 24.95 6.2 43.1 61 -0.7 30.7 6.549 0.258
23:23 1016 30 845 24.95 6.2 43.2 61 -0.7 30.8 6.532 0.257
23:24 1016 30 845 24.95 6.2 43.2 61 -0.6 30.8 6.56 0.258
23:25 1016 30 845 24.95 6.2 43.2 62 -0.6 30.9 6.515 0.256
23:26 1016 30 845 24.95 6.2 43.1 62 -0.6 30.9 6.509 0.256
23:27 1016 30 845 24.95 6.2 43.1 61 -0.7 30.7 6.515 0.256
23:28 1016 30 845 24.95 6.2 43.2 62 -0.6 30.9 6.515 0.256
23:29 1016 30 845 24.95 6.2 43.2 61 -0.7 30.7 6.538 0.257
23:30 1016 30 845 24.95 6.2 43.2 62 -0.5 31.1 6.487 0.255
23:31 1016 30 845 24.95 6.1 43.1 61 -0.7 30.7 6.47 0.255
23:32 1016 30 845 24.95 6.2 43.2 60 -0.9 30.4 6.498 0.256
23:33 1016 30 845 24.95 6.4 43.5 60 -0.7 30.7 6.673 0.263
23:34 1016 30 845 24.95 6.5 43.7 59 -1 30.3 6.804 0.268
23:35 1016 30 845 24.95 6.6 43.9 58 -1 30.3 6.907 0.272
23:36 1016 30 845 24.95 6.7 44.1 58 -0.9 30.3 7 0.276
23:37 1016 30 845 24.95 6.8 44.2 58 -1 30.2 7.08 0.279
23:38 1016 30 845 24.95 6.8 44.3 58 -0.9 30.3 7.16 0.282
23:39 1016 30 845 24.95 6.9 44.3 58 -0.9 30.4 7.16 0.282
23:40 1016 30 845 24.95 6.9 44.4 59 -0.7 30.8 7.18 0.283
23:41 1016 30 845 24.95 6.7 44.1 61 -0.3 31.5 7.06 0.278
23:42 1016 30 845 24.95 6.6 43.8 61 -0.4 31.3 6.898 0.272
23:43 1016 30 845 24.95 6.4 43.5 63 -0.2 31.7 6.723 0.265
23:44 1016 30 845 24.95 6.1 43 61 -0.9 30.5 6.514 0.256
23:45 1016 30 845 24.95 6.2 43.2 60 -1 30.1 6.593 0.26
23:46 1016 30 845 24.95 6.4 43.4 59 -1 30.1 6.712 0.264
23:47 1016 30 845 24.95 6.5 43.7 58 -1.1 30.1 6.843 0.269
23:48 1016 30 845 24.95 6.6 43.9 59 -0.8 30.6 6.911 0.272
23:49 1016 30 845 24.95 6.6 43.8 60 -0.6 30.8 6.905 0.272
23:50 1016 30 845 24.95 6.5 43.7 59 -0.9 30.4 6.906 0.272
23:51 1016 30 845 24.95 6.5 43.7 59 -1 30.2 6.849 0.27
23:52 1016 30 845 24.95 6.5 43.7 58 -1.1 30.1 6.845 0.269
23:53 1016 30 845 24.95 6.5 43.7 58 -1.1 30 6.851 0.27
23:54 1016 30 845 24.95 6.6 43.8 58 -1.1 30 6.862 0.27
23:55 1016 30 845 24.95 6.6 43.8 58 -1.1 30 6.879 0.271
23:56 1016 30 845 24.95 6.6 43.8 58 -1.2 29.9 6.93 0.273
23:57 1016 30 845 24.95 6.7 44 58 -1.1 30.1 6.97 0.274
23:58 1016 30 845 24.95 6.7 44.1 57 -1.2 29.9 7.04 0.277
23:59 1016 30 845 24.95 6.7 44.1 57 -1.3 29.7 7.11 0.28
24:00 1016 30 845 24.95 6.9 44.4 56 -1.2 29.8 7.25 0.285